<?xml version="1.0" encoding="UTF-8" standalone="no" ?>
<gpx xmlns="http://www.topografix.com/GPX/1/1" xmlns:xsi="http://www.w3.org/2001/XMLSchema-instance" xsi:schemaLocation="http://www.topografix.com/GPX/1/1 http://www.topografix.com/GPX/1/1/gpx.xsd" version="1.1" creator="VisuGPX - https://www.visugpx.com">
  <metadata>
    <name>Mazamet la Calmille jeudi 12 mars 2020</name>
  </metadata>
  <trk>
    <name><![CDATA[Mazamet la Calmille jeudi 12 mars 2020]]></name>
    <trkseg>
      <trkpt lat="43.45472" lon="2.31954">
        <ele>802.96127612144</ele>
        <time>2020-03-12T13:10:14Z</time>
      </trkpt>
      <trkpt lat="43.45472" lon="2.31954">
        <ele>802.96127612144</ele>
        <time>2020-03-12T13:10:22Z</time>
      </trkpt>
      <trkpt lat="43.45422" lon="2.31919">
        <ele>739.87991005834</ele>
        <time>2020-03-12T13:10:26Z</time>
      </trkpt>
      <trkpt lat="43.45414" lon="2.31917">
        <ele>738.24681400508</ele>
        <time>2020-03-12T13:11:28Z</time>
      </trkpt>
      <trkpt lat="43.45405" lon="2.31914">
        <ele>737.93959140033</ele>
        <time>2020-03-12T13:11:38Z</time>
      </trkpt>
      <trkpt lat="43.45399" lon="2.31908">
        <ele>735.72427815478</ele>
        <time>2020-03-12T13:11:49Z</time>
      </trkpt>
      <trkpt lat="43.4539" lon="2.31907">
        <ele>735.28742363118</ele>
        <time>2020-03-12T13:11:57Z</time>
      </trkpt>
      <trkpt lat="43.45383" lon="2.31903">
        <ele>733.90634483565</ele>
        <time>2020-03-12T13:12:05Z</time>
      </trkpt>
      <trkpt lat="43.45376" lon="2.31897">
        <ele>732.40989570599</ele>
        <time>2020-03-12T13:12:12Z</time>
      </trkpt>
      <trkpt lat="43.45374" lon="2.31885">
        <ele>732.08134205267</ele>
        <time>2020-03-12T13:12:23Z</time>
      </trkpt>
      <trkpt lat="43.45381" lon="2.31877">
        <ele>730.63604795374</ele>
        <time>2020-03-12T13:12:35Z</time>
      </trkpt>
      <trkpt lat="43.45388" lon="2.31874">
        <ele>734.3075947538</ele>
        <time>2020-03-12T13:12:52Z</time>
      </trkpt>
      <trkpt lat="43.45397" lon="2.31875">
        <ele>736.07103152201</ele>
        <time>2020-03-12T13:13:17Z</time>
      </trkpt>
      <trkpt lat="43.45404" lon="2.31873">
        <ele>736.46478536539</ele>
        <time>2020-03-12T13:13:28Z</time>
      </trkpt>
      <trkpt lat="43.4541" lon="2.3187">
        <ele>736.63910862897</ele>
        <time>2020-03-12T13:13:35Z</time>
      </trkpt>
      <trkpt lat="43.45418" lon="2.31864">
        <ele>735.95256482903</ele>
        <time>2020-03-12T13:13:39Z</time>
      </trkpt>
      <trkpt lat="43.45426" lon="2.31858">
        <ele>734.8674418414</ele>
        <time>2020-03-12T13:13:45Z</time>
      </trkpt>
      <trkpt lat="43.4543" lon="2.31848">
        <ele>734.71442663204</ele>
        <time>2020-03-12T13:13:51Z</time>
      </trkpt>
      <trkpt lat="43.45435" lon="2.31838">
        <ele>735.01949016377</ele>
        <time>2020-03-12T13:14:00Z</time>
      </trkpt>
      <trkpt lat="43.45437" lon="2.31827">
        <ele>736.73275076225</ele>
        <time>2020-03-12T13:14:10Z</time>
      </trkpt>
      <trkpt lat="43.45438" lon="2.31816">
        <ele>738.60383543372</ele>
        <time>2020-03-12T13:14:22Z</time>
      </trkpt>
      <trkpt lat="43.45437" lon="2.31804">
        <ele>739.98420706578</ele>
        <time>2020-03-12T13:14:34Z</time>
      </trkpt>
      <trkpt lat="43.45434" lon="2.31793">
        <ele>742.27083302941</ele>
        <time>2020-03-12T13:14:47Z</time>
      </trkpt>
      <trkpt lat="43.45431" lon="2.31782">
        <ele>746.99747138005</ele>
        <time>2020-03-12T13:15:19Z</time>
      </trkpt>
      <trkpt lat="43.45434" lon="2.31771">
        <ele>748.41436788812</ele>
        <time>2020-03-12T13:15:24Z</time>
      </trkpt>
      <trkpt lat="43.45438" lon="2.3176">
        <ele>750.27536489815</ele>
        <time>2020-03-12T13:15:54Z</time>
      </trkpt>
      <trkpt lat="43.45443" lon="2.31753">
        <ele>752.01197965536</ele>
        <time>2020-03-12T13:16:17Z</time>
      </trkpt>
      <trkpt lat="43.45449" lon="2.31742">
        <ele>752.59221357573</ele>
        <time>2020-03-12T13:16:21Z</time>
      </trkpt>
      <trkpt lat="43.45454" lon="2.31733">
        <ele>753.48145099636</ele>
        <time>2020-03-12T13:16:37Z</time>
      </trkpt>
      <trkpt lat="43.45459" lon="2.31724">
        <ele>753.95606135111</ele>
        <time>2020-03-12T13:16:46Z</time>
      </trkpt>
      <trkpt lat="43.45464" lon="2.31716">
        <ele>755.15897766035</ele>
        <time>2020-03-12T13:16:51Z</time>
      </trkpt>
      <trkpt lat="43.45469" lon="2.31707">
        <ele>757.24808722083</ele>
        <time>2020-03-12T13:16:58Z</time>
      </trkpt>
      <trkpt lat="43.45475" lon="2.31699">
        <ele>758.53869407531</ele>
        <time>2020-03-12T13:17:03Z</time>
      </trkpt>
      <trkpt lat="43.45477" lon="2.31688">
        <ele>761.7800813783</ele>
        <time>2020-03-12T13:17:16Z</time>
      </trkpt>
      <trkpt lat="43.45481" lon="2.31678">
        <ele>765.81802090723</ele>
        <time>2020-03-12T13:17:25Z</time>
      </trkpt>
      <trkpt lat="43.45485" lon="2.31667">
        <ele>767.19243504573</ele>
        <time>2020-03-12T13:17:37Z</time>
      </trkpt>
      <trkpt lat="43.45486" lon="2.31656">
        <ele>766.57137296535</ele>
        <time>2020-03-12T13:17:51Z</time>
      </trkpt>
      <trkpt lat="43.45486" lon="2.31644">
        <ele>765.61063018534</ele>
        <time>2020-03-12T13:17:59Z</time>
      </trkpt>
      <trkpt lat="43.4549" lon="2.31635">
        <ele>767.10359608661</ele>
        <time>2020-03-12T13:18:05Z</time>
      </trkpt>
      <trkpt lat="43.45495" lon="2.31625">
        <ele>769.03474103007</ele>
        <time>2020-03-12T13:18:12Z</time>
      </trkpt>
      <trkpt lat="43.45497" lon="2.31613">
        <ele>769.89425031655</ele>
        <time>2020-03-12T13:18:21Z</time>
      </trkpt>
      <trkpt lat="43.455" lon="2.31602">
        <ele>769.39144817553</ele>
        <time>2020-03-12T13:18:31Z</time>
      </trkpt>
      <trkpt lat="43.45501" lon="2.31591">
        <ele>768.60169996135</ele>
        <time>2020-03-12T13:18:39Z</time>
      </trkpt>
      <trkpt lat="43.45505" lon="2.3158">
        <ele>768.35117148794</ele>
        <time>2020-03-12T13:18:47Z</time>
      </trkpt>
      <trkpt lat="43.45509" lon="2.31571">
        <ele>768.09610442352</ele>
        <time>2020-03-12T13:18:59Z</time>
      </trkpt>
      <trkpt lat="43.45514" lon="2.31561">
        <ele>771.59382481221</ele>
        <time>2020-03-12T13:19:14Z</time>
      </trkpt>
      <trkpt lat="43.45519" lon="2.31552">
        <ele>771.16856124718</ele>
        <time>2020-03-12T13:19:21Z</time>
      </trkpt>
      <trkpt lat="43.45523" lon="2.31541">
        <ele>771.24140050728</ele>
        <time>2020-03-12T13:19:29Z</time>
      </trkpt>
      <trkpt lat="43.45528" lon="2.31531">
        <ele>771.9370575333</ele>
        <time>2020-03-12T13:19:36Z</time>
      </trkpt>
      <trkpt lat="43.45535" lon="2.31524">
        <ele>775.09112094156</ele>
        <time>2020-03-12T13:19:48Z</time>
      </trkpt>
      <trkpt lat="43.45539" lon="2.31514">
        <ele>775.47586357966</ele>
        <time>2020-03-12T13:19:59Z</time>
      </trkpt>
      <trkpt lat="43.45542" lon="2.31503">
        <ele>773.9254091708</ele>
        <time>2020-03-12T13:20:07Z</time>
      </trkpt>
      <trkpt lat="43.45547" lon="2.31494">
        <ele>773.97416140977</ele>
        <time>2020-03-12T13:20:18Z</time>
      </trkpt>
      <trkpt lat="43.45554" lon="2.31485">
        <ele>772.88398132101</ele>
        <time>2020-03-12T13:20:29Z</time>
      </trkpt>
      <trkpt lat="43.4556" lon="2.31478">
        <ele>773.09761665948</ele>
        <time>2020-03-12T13:20:38Z</time>
      </trkpt>
      <trkpt lat="43.45566" lon="2.3147">
        <ele>774.08624949958</ele>
        <time>2020-03-12T13:20:44Z</time>
      </trkpt>
      <trkpt lat="43.45569" lon="2.31461">
        <ele>773.56323800609</ele>
        <time>2020-03-12T13:20:57Z</time>
      </trkpt>
      <trkpt lat="43.45574" lon="2.3145">
        <ele>773.53156802803</ele>
        <time>2020-03-12T13:21:02Z</time>
      </trkpt>
      <trkpt lat="43.45579" lon="2.31442">
        <ele>773.22271222435</ele>
        <time>2020-03-12T13:21:15Z</time>
      </trkpt>
      <trkpt lat="43.45584" lon="2.31434">
        <ele>774.42331622634</ele>
        <time>2020-03-12T13:21:19Z</time>
      </trkpt>
      <trkpt lat="43.45589" lon="2.31425">
        <ele>776.79332020693</ele>
        <time>2020-03-12T13:21:24Z</time>
      </trkpt>
      <trkpt lat="43.45595" lon="2.31418">
        <ele>780.14927602559</ele>
        <time>2020-03-12T13:21:33Z</time>
      </trkpt>
      <trkpt lat="43.45601" lon="2.31411">
        <ele>779.54201053269</ele>
        <time>2020-03-12T13:21:39Z</time>
      </trkpt>
      <trkpt lat="43.45608" lon="2.31404">
        <ele>778.44317812379</ele>
        <time>2020-03-12T13:21:45Z</time>
      </trkpt>
      <trkpt lat="43.45613" lon="2.31395">
        <ele>778.70460946392</ele>
        <time>2020-03-12T13:21:53Z</time>
      </trkpt>
      <trkpt lat="43.45619" lon="2.31386">
        <ele>780.24419522844</ele>
        <time>2020-03-12T13:22:08Z</time>
      </trkpt>
      <trkpt lat="43.45624" lon="2.31376">
        <ele>778.6244884897</ele>
        <time>2020-03-12T13:22:15Z</time>
      </trkpt>
      <trkpt lat="43.45627" lon="2.31365">
        <ele>776.99394346122</ele>
        <time>2020-03-12T13:22:22Z</time>
      </trkpt>
      <trkpt lat="43.4563" lon="2.31353">
        <ele>775.99261447694</ele>
        <time>2020-03-12T13:22:33Z</time>
      </trkpt>
      <trkpt lat="43.45634" lon="2.31342">
        <ele>775.63715332188</ele>
        <time>2020-03-12T13:22:56Z</time>
      </trkpt>
      <trkpt lat="43.45643" lon="2.3133">
        <ele>777.78122944012</ele>
        <time>2020-03-12T13:23:01Z</time>
      </trkpt>
      <trkpt lat="43.45651" lon="2.31334">
        <ele>777.87297005765</ele>
        <time>2020-03-12T13:23:29Z</time>
      </trkpt>
      <trkpt lat="43.45654" lon="2.31344">
        <ele>779.97013000213</ele>
        <time>2020-03-12T13:23:42Z</time>
      </trkpt>
      <trkpt lat="43.45658" lon="2.31354">
        <ele>781.7867201576</ele>
        <time>2020-03-12T13:23:47Z</time>
      </trkpt>
      <trkpt lat="43.45662" lon="2.31365">
        <ele>781.91045279987</ele>
        <time>2020-03-12T13:23:51Z</time>
      </trkpt>
      <trkpt lat="43.45668" lon="2.31374">
        <ele>781.18917671032</ele>
        <time>2020-03-12T13:23:55Z</time>
      </trkpt>
      <trkpt lat="43.45674" lon="2.31383">
        <ele>780.79194094799</ele>
        <time>2020-03-12T13:24:02Z</time>
      </trkpt>
      <trkpt lat="43.4568" lon="2.31389">
        <ele>780.21618757211</ele>
        <time>2020-03-12T13:24:13Z</time>
      </trkpt>
      <trkpt lat="43.45685" lon="2.31398">
        <ele>780.30836645141</ele>
        <time>2020-03-12T13:24:26Z</time>
      </trkpt>
      <trkpt lat="43.45691" lon="2.31406">
        <ele>778.63732796814</ele>
        <time>2020-03-12T13:24:39Z</time>
      </trkpt>
      <trkpt lat="43.45696" lon="2.31413">
        <ele>777.29930295423</ele>
        <time>2020-03-12T13:24:45Z</time>
      </trkpt>
      <trkpt lat="43.45703" lon="2.31418">
        <ele>775.91705071833</ele>
        <time>2020-03-12T13:24:53Z</time>
      </trkpt>
      <trkpt lat="43.45709" lon="2.31421">
        <ele>775.38898692559</ele>
        <time>2020-03-12T13:25:06Z</time>
      </trkpt>
      <trkpt lat="43.45721" lon="2.31427">
        <ele>777.22626760229</ele>
        <time>2020-03-12T13:25:11Z</time>
      </trkpt>
      <trkpt lat="43.4573" lon="2.31429">
        <ele>779.62717376649</ele>
        <time>2020-03-12T13:25:21Z</time>
      </trkpt>
      <trkpt lat="43.45737" lon="2.31435">
        <ele>781.38535927143</ele>
        <time>2020-03-12T13:25:32Z</time>
      </trkpt>
      <trkpt lat="43.45742" lon="2.31444">
        <ele>789.375996029</ele>
        <time>2020-03-12T13:25:57Z</time>
      </trkpt>
      <trkpt lat="43.45744" lon="2.31456">
        <ele>794.0079081608</ele>
        <time>2020-03-12T13:26:06Z</time>
      </trkpt>
      <trkpt lat="43.45748" lon="2.31466">
        <ele>793.01279399451</ele>
        <time>2020-03-12T13:26:13Z</time>
      </trkpt>
      <trkpt lat="43.45748" lon="2.31477">
        <ele>792.06371158268</ele>
        <time>2020-03-12T13:26:19Z</time>
      </trkpt>
      <trkpt lat="43.45751" lon="2.31486">
        <ele>791.06616728939</ele>
        <time>2020-03-12T13:26:26Z</time>
      </trkpt>
      <trkpt lat="43.45752" lon="2.31496">
        <ele>789.48406486586</ele>
        <time>2020-03-12T13:26:36Z</time>
      </trkpt>
      <trkpt lat="43.45755" lon="2.31507">
        <ele>787.75947317574</ele>
        <time>2020-03-12T13:26:43Z</time>
      </trkpt>
      <trkpt lat="43.45758" lon="2.31518">
        <ele>785.27906995174</ele>
        <time>2020-03-12T13:26:50Z</time>
      </trkpt>
      <trkpt lat="43.4576" lon="2.31529">
        <ele>785.25854955055</ele>
        <time>2020-03-12T13:27:09Z</time>
      </trkpt>
      <trkpt lat="43.45764" lon="2.31542">
        <ele>785.87854921818</ele>
        <time>2020-03-12T13:27:13Z</time>
      </trkpt>
      <trkpt lat="43.45764" lon="2.31552">
        <ele>785.77629514784</ele>
        <time>2020-03-12T13:27:26Z</time>
      </trkpt>
      <trkpt lat="43.45765" lon="2.31565">
        <ele>787.20709359553</ele>
        <time>2020-03-12T13:27:43Z</time>
      </trkpt>
      <trkpt lat="43.45766" lon="2.31576">
        <ele>788.28925789241</ele>
        <time>2020-03-12T13:27:47Z</time>
      </trkpt>
      <trkpt lat="43.4577" lon="2.31586">
        <ele>789.16325429734</ele>
        <time>2020-03-12T13:27:54Z</time>
      </trkpt>
      <trkpt lat="43.45775" lon="2.31596">
        <ele>791.15293024387</ele>
        <time>2020-03-12T13:28:02Z</time>
      </trkpt>
      <trkpt lat="43.45778" lon="2.31609">
        <ele>791.01079793181</ele>
        <time>2020-03-12T13:28:07Z</time>
      </trkpt>
      <trkpt lat="43.4578" lon="2.3162">
        <ele>788.95009172428</ele>
        <time>2020-03-12T13:28:12Z</time>
      </trkpt>
      <trkpt lat="43.45784" lon="2.31631">
        <ele>785.91639819834</ele>
        <time>2020-03-12T13:28:20Z</time>
      </trkpt>
      <trkpt lat="43.45785" lon="2.31643">
        <ele>786.95973661914</ele>
        <time>2020-03-12T13:28:38Z</time>
      </trkpt>
      <trkpt lat="43.45785" lon="2.31654">
        <ele>788.80397513323</ele>
        <time>2020-03-12T13:28:46Z</time>
      </trkpt>
      <trkpt lat="43.45781" lon="2.31665">
        <ele>789.57200346701</ele>
        <time>2020-03-12T13:28:53Z</time>
      </trkpt>
      <trkpt lat="43.45781" lon="2.31676">
        <ele>792.24308142811</ele>
        <time>2020-03-12T13:29:12Z</time>
      </trkpt>
      <trkpt lat="43.45783" lon="2.31687">
        <ele>794.411508644</ele>
        <time>2020-03-12T13:29:28Z</time>
      </trkpt>
      <trkpt lat="43.45786" lon="2.317">
        <ele>794.04233811703</ele>
        <time>2020-03-12T13:29:32Z</time>
      </trkpt>
      <trkpt lat="43.4579" lon="2.31711">
        <ele>793.33993821032</ele>
        <time>2020-03-12T13:29:37Z</time>
      </trkpt>
      <trkpt lat="43.45794" lon="2.3172">
        <ele>791.04419905227</ele>
        <time>2020-03-12T13:29:48Z</time>
      </trkpt>
      <trkpt lat="43.45801" lon="2.31729">
        <ele>790.78244719189</ele>
        <time>2020-03-12T13:29:58Z</time>
      </trkpt>
      <trkpt lat="43.45807" lon="2.31737">
        <ele>791.71511436533</ele>
        <time>2020-03-12T13:30:14Z</time>
      </trkpt>
      <trkpt lat="43.45814" lon="2.31744">
        <ele>792.59286675043</ele>
        <time>2020-03-12T13:30:22Z</time>
      </trkpt>
      <trkpt lat="43.4582" lon="2.31752">
        <ele>793.93990943301</ele>
        <time>2020-03-12T13:30:27Z</time>
      </trkpt>
      <trkpt lat="43.45825" lon="2.31762">
        <ele>794.34417816252</ele>
        <time>2020-03-12T13:30:51Z</time>
      </trkpt>
      <trkpt lat="43.4583" lon="2.3177">
        <ele>794.87137733772</ele>
        <time>2020-03-12T13:31:05Z</time>
      </trkpt>
      <trkpt lat="43.45834" lon="2.31779">
        <ele>795.99686813168</ele>
        <time>2020-03-12T13:31:09Z</time>
      </trkpt>
      <trkpt lat="43.45838" lon="2.31788">
        <ele>796.95435267966</ele>
        <time>2020-03-12T13:31:15Z</time>
      </trkpt>
      <trkpt lat="43.45841" lon="2.31797">
        <ele>797.22874320857</ele>
        <time>2020-03-12T13:31:25Z</time>
      </trkpt>
      <trkpt lat="43.45843" lon="2.31807">
        <ele>797.73838963266</ele>
        <time>2020-03-12T13:31:34Z</time>
      </trkpt>
      <trkpt lat="43.45846" lon="2.3182">
        <ele>799.07118569687</ele>
        <time>2020-03-12T13:31:39Z</time>
      </trkpt>
      <trkpt lat="43.4585" lon="2.3183">
        <ele>799.32682386879</ele>
        <time>2020-03-12T13:31:58Z</time>
      </trkpt>
      <trkpt lat="43.45855" lon="2.31842">
        <ele>800.05873073079</ele>
        <time>2020-03-12T13:32:03Z</time>
      </trkpt>
      <trkpt lat="43.45856" lon="2.31854">
        <ele>802.1007245807</ele>
        <time>2020-03-12T13:32:19Z</time>
      </trkpt>
      <trkpt lat="43.45857" lon="2.31863">
        <ele>803.52715624031</ele>
        <time>2020-03-12T13:32:24Z</time>
      </trkpt>
      <trkpt lat="43.45859" lon="2.31874">
        <ele>803.54438118357</ele>
        <time>2020-03-12T13:32:31Z</time>
      </trkpt>
      <trkpt lat="43.45861" lon="2.31884">
        <ele>802.75286848564</ele>
        <time>2020-03-12T13:32:40Z</time>
      </trkpt>
      <trkpt lat="43.45864" lon="2.31896">
        <ele>801.80815357622</ele>
        <time>2020-03-12T13:32:46Z</time>
      </trkpt>
      <trkpt lat="43.45869" lon="2.31905">
        <ele>799.87375155743</ele>
        <time>2020-03-12T13:32:53Z</time>
      </trkpt>
      <trkpt lat="43.45874" lon="2.31912">
        <ele>800.72162489966</ele>
        <time>2020-03-12T13:33:07Z</time>
      </trkpt>
      <trkpt lat="43.45881" lon="2.31919">
        <ele>801.45600126497</ele>
        <time>2020-03-12T13:33:12Z</time>
      </trkpt>
      <trkpt lat="43.45888" lon="2.31927">
        <ele>802.61825486086</ele>
        <time>2020-03-12T13:33:19Z</time>
      </trkpt>
      <trkpt lat="43.45893" lon="2.31935">
        <ele>803.17002940364</ele>
        <time>2020-03-12T13:33:31Z</time>
      </trkpt>
      <trkpt lat="43.45901" lon="2.31943">
        <ele>803.16527887713</ele>
        <time>2020-03-12T13:33:43Z</time>
      </trkpt>
      <trkpt lat="43.45907" lon="2.3195">
        <ele>802.40282491129</ele>
        <time>2020-03-12T13:33:51Z</time>
      </trkpt>
      <trkpt lat="43.45914" lon="2.31959">
        <ele>804.51735525578</ele>
        <time>2020-03-12T13:34:07Z</time>
      </trkpt>
      <trkpt lat="43.45919" lon="2.31968">
        <ele>804.46283415705</ele>
        <time>2020-03-12T13:34:12Z</time>
      </trkpt>
      <trkpt lat="43.45924" lon="2.31976">
        <ele>805.7445577709</ele>
        <time>2020-03-12T13:34:18Z</time>
      </trkpt>
      <trkpt lat="43.45929" lon="2.31985">
        <ele>804.76871752739</ele>
        <time>2020-03-12T13:34:28Z</time>
      </trkpt>
      <trkpt lat="43.45933" lon="2.31996">
        <ele>803.56711157225</ele>
        <time>2020-03-12T13:34:33Z</time>
      </trkpt>
      <trkpt lat="43.45935" lon="2.32007">
        <ele>804.57345200144</ele>
        <time>2020-03-12T13:34:42Z</time>
      </trkpt>
      <trkpt lat="43.45941" lon="2.32016">
        <ele>813.63499564305</ele>
        <time>2020-03-12T13:34:52Z</time>
      </trkpt>
      <trkpt lat="43.45949" lon="2.3202">
        <ele>815.49423526227</ele>
        <time>2020-03-12T13:35:02Z</time>
      </trkpt>
      <trkpt lat="43.45956" lon="2.32026">
        <ele>815.17921111733</ele>
        <time>2020-03-12T13:35:11Z</time>
      </trkpt>
      <trkpt lat="43.45963" lon="2.32034">
        <ele>813.4743286781</ele>
        <time>2020-03-12T13:35:22Z</time>
      </trkpt>
      <trkpt lat="43.45969" lon="2.32043">
        <ele>814.37953749951</ele>
        <time>2020-03-12T13:35:28Z</time>
      </trkpt>
      <trkpt lat="43.45976" lon="2.32049">
        <ele>814.5729510393</ele>
        <time>2020-03-12T13:35:34Z</time>
      </trkpt>
      <trkpt lat="43.45983" lon="2.32054">
        <ele>813.47390857246</ele>
        <time>2020-03-12T13:35:40Z</time>
      </trkpt>
      <trkpt lat="43.4599" lon="2.32059">
        <ele>812.50554999523</ele>
        <time>2020-03-12T13:35:47Z</time>
      </trkpt>
      <trkpt lat="43.45998" lon="2.32062">
        <ele>811.1183497468</ele>
        <time>2020-03-12T13:35:56Z</time>
      </trkpt>
      <trkpt lat="43.46004" lon="2.32071">
        <ele>813.88437079918</ele>
        <time>2020-03-12T13:36:16Z</time>
      </trkpt>
      <trkpt lat="43.46011" lon="2.32066">
        <ele>812.06785137951</ele>
        <time>2020-03-12T13:36:30Z</time>
      </trkpt>
      <trkpt lat="43.46016" lon="2.32061">
        <ele>812.12333561294</ele>
        <time>2020-03-12T13:36:40Z</time>
      </trkpt>
      <trkpt lat="43.46027" lon="2.32053">
        <ele>812.94846258406</ele>
        <time>2020-03-12T13:36:44Z</time>
      </trkpt>
      <trkpt lat="43.46033" lon="2.32045">
        <ele>813.97454147693</ele>
        <time>2020-03-12T13:36:50Z</time>
      </trkpt>
      <trkpt lat="43.4604" lon="2.32038">
        <ele>812.59487287793</ele>
        <time>2020-03-12T13:37:01Z</time>
      </trkpt>
      <trkpt lat="43.46045" lon="2.32028">
        <ele>812.15080094617</ele>
        <time>2020-03-12T13:37:06Z</time>
      </trkpt>
      <trkpt lat="43.4605" lon="2.32019">
        <ele>809.35083110537</ele>
        <time>2020-03-12T13:37:12Z</time>
      </trkpt>
      <trkpt lat="43.46055" lon="2.32009">
        <ele>808.4319760846</ele>
        <time>2020-03-12T13:37:18Z</time>
      </trkpt>
      <trkpt lat="43.4606" lon="2.32">
        <ele>808.63313179743</ele>
        <time>2020-03-12T13:37:25Z</time>
      </trkpt>
      <trkpt lat="43.46065" lon="2.31991">
        <ele>808.57032888196</ele>
        <time>2020-03-12T13:37:39Z</time>
      </trkpt>
      <trkpt lat="43.46069" lon="2.3198">
        <ele>808.23864656873</ele>
        <time>2020-03-12T13:37:49Z</time>
      </trkpt>
      <trkpt lat="43.46073" lon="2.3197">
        <ele>809.66830085125</ele>
        <time>2020-03-12T13:37:56Z</time>
      </trkpt>
      <trkpt lat="43.46077" lon="2.3196">
        <ele>812.68279526383</ele>
        <time>2020-03-12T13:38:10Z</time>
      </trkpt>
      <trkpt lat="43.46083" lon="2.31952">
        <ele>813.11472981609</ele>
        <time>2020-03-12T13:38:23Z</time>
      </trkpt>
      <trkpt lat="43.4609" lon="2.31945">
        <ele>815.92769043241</ele>
        <time>2020-03-12T13:38:32Z</time>
      </trkpt>
      <trkpt lat="43.46098" lon="2.31944">
        <ele>818.95464844909</ele>
        <time>2020-03-12T13:38:58Z</time>
      </trkpt>
      <trkpt lat="43.46107" lon="2.31944">
        <ele>819.6041402705</ele>
        <time>2020-03-12T13:39:06Z</time>
      </trkpt>
      <trkpt lat="43.46115" lon="2.31942">
        <ele>817.52836410515</ele>
        <time>2020-03-12T13:39:14Z</time>
      </trkpt>
      <trkpt lat="43.46124" lon="2.31944">
        <ele>816.89020707458</ele>
        <time>2020-03-12T13:39:21Z</time>
      </trkpt>
      <trkpt lat="43.46132" lon="2.31944">
        <ele>817.09475219809</ele>
        <time>2020-03-12T13:39:26Z</time>
      </trkpt>
      <trkpt lat="43.4614" lon="2.31947">
        <ele>815.87225548737</ele>
        <time>2020-03-12T13:39:34Z</time>
      </trkpt>
      <trkpt lat="43.46147" lon="2.31952">
        <ele>814.53590477724</ele>
        <time>2020-03-12T13:39:41Z</time>
      </trkpt>
      <trkpt lat="43.46153" lon="2.3196">
        <ele>813.20386410598</ele>
        <time>2020-03-12T13:39:48Z</time>
      </trkpt>
      <trkpt lat="43.4616" lon="2.31967">
        <ele>810.37443062477</ele>
        <time>2020-03-12T13:39:56Z</time>
      </trkpt>
      <trkpt lat="43.46167" lon="2.31973">
        <ele>808.06360780727</ele>
        <time>2020-03-12T13:40:03Z</time>
      </trkpt>
      <trkpt lat="43.46173" lon="2.3198">
        <ele>807.09226803947</ele>
        <time>2020-03-12T13:40:11Z</time>
      </trkpt>
      <trkpt lat="43.4618" lon="2.31986">
        <ele>805.81069511641</ele>
        <time>2020-03-12T13:40:19Z</time>
      </trkpt>
      <trkpt lat="43.46187" lon="2.31993">
        <ele>803.06117106229</ele>
        <time>2020-03-12T13:40:27Z</time>
      </trkpt>
      <trkpt lat="43.46193" lon="2.32">
        <ele>801.21311753988</ele>
        <time>2020-03-12T13:40:35Z</time>
      </trkpt>
      <trkpt lat="43.46199" lon="2.32007">
        <ele>802.60641698912</ele>
        <time>2020-03-12T13:40:44Z</time>
      </trkpt>
      <trkpt lat="43.46205" lon="2.32017">
        <ele>802.27839189675</ele>
        <time>2020-03-12T13:40:53Z</time>
      </trkpt>
      <trkpt lat="43.46211" lon="2.32024">
        <ele>801.07372680493</ele>
        <time>2020-03-12T13:41:00Z</time>
      </trkpt>
      <trkpt lat="43.46215" lon="2.32035">
        <ele>801.20252819732</ele>
        <time>2020-03-12T13:41:08Z</time>
      </trkpt>
      <trkpt lat="43.46219" lon="2.32046">
        <ele>802.94422634318</ele>
        <time>2020-03-12T13:41:17Z</time>
      </trkpt>
      <trkpt lat="43.46222" lon="2.32057">
        <ele>804.82984694745</ele>
        <time>2020-03-12T13:41:26Z</time>
      </trkpt>
      <trkpt lat="43.46223" lon="2.32069">
        <ele>805.29460868984</ele>
        <time>2020-03-12T13:41:36Z</time>
      </trkpt>
      <trkpt lat="43.46222" lon="2.3208">
        <ele>801.73025681637</ele>
        <time>2020-03-12T13:41:48Z</time>
      </trkpt>
      <trkpt lat="43.46223" lon="2.32092">
        <ele>798.15392263513</ele>
        <time>2020-03-12T13:41:56Z</time>
      </trkpt>
      <trkpt lat="43.46225" lon="2.32104">
        <ele>796.09839959815</ele>
        <time>2020-03-12T13:42:04Z</time>
      </trkpt>
      <trkpt lat="43.46228" lon="2.32115">
        <ele>793.73636840656</ele>
        <time>2020-03-12T13:42:13Z</time>
      </trkpt>
      <trkpt lat="43.46231" lon="2.32126">
        <ele>792.80158628896</ele>
        <time>2020-03-12T13:42:25Z</time>
      </trkpt>
      <trkpt lat="43.46231" lon="2.32138">
        <ele>793.59486394282</ele>
        <time>2020-03-12T13:42:36Z</time>
      </trkpt>
      <trkpt lat="43.46232" lon="2.32151">
        <ele>792.37355379481</ele>
        <time>2020-03-12T13:42:45Z</time>
      </trkpt>
      <trkpt lat="43.46232" lon="2.32163">
        <ele>793.18496362492</ele>
        <time>2020-03-12T13:42:52Z</time>
      </trkpt>
      <trkpt lat="43.46235" lon="2.32174">
        <ele>791.98298448324</ele>
        <time>2020-03-12T13:42:59Z</time>
      </trkpt>
      <trkpt lat="43.46237" lon="2.32186">
        <ele>790.23680218123</ele>
        <time>2020-03-12T13:43:07Z</time>
      </trkpt>
      <trkpt lat="43.4624" lon="2.32198">
        <ele>788.44803691376</ele>
        <time>2020-03-12T13:43:18Z</time>
      </trkpt>
      <trkpt lat="43.46244" lon="2.32207">
        <ele>785.85597034823</ele>
        <time>2020-03-12T13:43:27Z</time>
      </trkpt>
      <trkpt lat="43.46247" lon="2.32217">
        <ele>785.34841150418</ele>
        <time>2020-03-12T13:43:34Z</time>
      </trkpt>
      <trkpt lat="43.46252" lon="2.32227">
        <ele>783.22039643582</ele>
        <time>2020-03-12T13:43:44Z</time>
      </trkpt>
      <trkpt lat="43.46255" lon="2.32238">
        <ele>782.91573264729</ele>
        <time>2020-03-12T13:43:54Z</time>
      </trkpt>
      <trkpt lat="43.46257" lon="2.3225">
        <ele>786.37735216785</ele>
        <time>2020-03-12T13:44:04Z</time>
      </trkpt>
      <trkpt lat="43.4626" lon="2.3226">
        <ele>790.05208117608</ele>
        <time>2020-03-12T13:44:14Z</time>
      </trkpt>
      <trkpt lat="43.46264" lon="2.3227">
        <ele>790.88592833653</ele>
        <time>2020-03-12T13:44:23Z</time>
      </trkpt>
      <trkpt lat="43.46268" lon="2.32281">
        <ele>790.44908310473</ele>
        <time>2020-03-12T13:44:31Z</time>
      </trkpt>
      <trkpt lat="43.46272" lon="2.32289">
        <ele>791.39031692874</ele>
        <time>2020-03-12T13:44:37Z</time>
      </trkpt>
      <trkpt lat="43.46278" lon="2.32297">
        <ele>790.72403975111</ele>
        <time>2020-03-12T13:44:43Z</time>
      </trkpt>
      <trkpt lat="43.46283" lon="2.32306">
        <ele>791.95401561633</ele>
        <time>2020-03-12T13:44:49Z</time>
      </trkpt>
      <trkpt lat="43.4629" lon="2.32313">
        <ele>793.77415487729</ele>
        <time>2020-03-12T13:44:57Z</time>
      </trkpt>
      <trkpt lat="43.46297" lon="2.3232">
        <ele>794.16543755401</ele>
        <time>2020-03-12T13:45:07Z</time>
      </trkpt>
      <trkpt lat="43.46303" lon="2.32327">
        <ele>796.21545458678</ele>
        <time>2020-03-12T13:45:15Z</time>
      </trkpt>
      <trkpt lat="43.46309" lon="2.32335">
        <ele>795.86129807588</ele>
        <time>2020-03-12T13:45:22Z</time>
      </trkpt>
      <trkpt lat="43.46314" lon="2.32345">
        <ele>795.98844158091</ele>
        <time>2020-03-12T13:45:31Z</time>
      </trkpt>
      <trkpt lat="43.46319" lon="2.32354">
        <ele>796.92331140488</ele>
        <time>2020-03-12T13:45:38Z</time>
      </trkpt>
      <trkpt lat="43.46326" lon="2.32361">
        <ele>798.23551082704</ele>
        <time>2020-03-12T13:45:45Z</time>
      </trkpt>
      <trkpt lat="43.46332" lon="2.32368">
        <ele>798.81489888858</ele>
        <time>2020-03-12T13:45:52Z</time>
      </trkpt>
      <trkpt lat="43.46339" lon="2.32374">
        <ele>799.93089498207</ele>
        <time>2020-03-12T13:45:59Z</time>
      </trkpt>
      <trkpt lat="43.46346" lon="2.32381">
        <ele>801.74243727606</ele>
        <time>2020-03-12T13:46:06Z</time>
      </trkpt>
      <trkpt lat="43.46352" lon="2.3239">
        <ele>803.40536656976</ele>
        <time>2020-03-12T13:46:13Z</time>
      </trkpt>
      <trkpt lat="43.46359" lon="2.32398">
        <ele>804.90923709329</ele>
        <time>2020-03-12T13:46:23Z</time>
      </trkpt>
      <trkpt lat="43.46364" lon="2.32407">
        <ele>806.03616044112</ele>
        <time>2020-03-12T13:46:34Z</time>
      </trkpt>
      <trkpt lat="43.46369" lon="2.32416">
        <ele>802.63345426321</ele>
        <time>2020-03-12T13:46:44Z</time>
      </trkpt>
      <trkpt lat="43.46372" lon="2.32428">
        <ele>804.13283423427</ele>
        <time>2020-03-12T13:46:53Z</time>
      </trkpt>
      <trkpt lat="43.46376" lon="2.32437">
        <ele>806.02447918616</ele>
        <time>2020-03-12T13:47:04Z</time>
      </trkpt>
      <trkpt lat="43.46381" lon="2.32447">
        <ele>805.47050140798</ele>
        <time>2020-03-12T13:47:12Z</time>
      </trkpt>
      <trkpt lat="43.46388" lon="2.32455">
        <ele>804.5306862006</ele>
        <time>2020-03-12T13:47:20Z</time>
      </trkpt>
      <trkpt lat="43.46395" lon="2.32463">
        <ele>803.78679035604</ele>
        <time>2020-03-12T13:47:29Z</time>
      </trkpt>
      <trkpt lat="43.46402" lon="2.3247">
        <ele>802.93307581637</ele>
        <time>2020-03-12T13:47:39Z</time>
      </trkpt>
      <trkpt lat="43.4641" lon="2.32475">
        <ele>802.88774363603</ele>
        <time>2020-03-12T13:47:51Z</time>
      </trkpt>
      <trkpt lat="43.46417" lon="2.32482">
        <ele>800.9299783567</ele>
        <time>2020-03-12T13:47:59Z</time>
      </trkpt>
      <trkpt lat="43.46424" lon="2.32485">
        <ele>799.7757746065</ele>
        <time>2020-03-12T13:48:06Z</time>
      </trkpt>
      <trkpt lat="43.46432" lon="2.32487">
        <ele>799.07703685947</ele>
        <time>2020-03-12T13:48:15Z</time>
      </trkpt>
      <trkpt lat="43.4644" lon="2.32486">
        <ele>800.17852867395</ele>
        <time>2020-03-12T13:48:23Z</time>
      </trkpt>
      <trkpt lat="43.46448" lon="2.32483">
        <ele>800.11513298377</ele>
        <time>2020-03-12T13:48:29Z</time>
      </trkpt>
      <trkpt lat="43.46457" lon="2.32482">
        <ele>799.80276809447</ele>
        <time>2020-03-12T13:48:36Z</time>
      </trkpt>
      <trkpt lat="43.46464" lon="2.32478">
        <ele>795.66973941866</ele>
        <time>2020-03-12T13:48:47Z</time>
      </trkpt>
      <trkpt lat="43.46472" lon="2.32474">
        <ele>794.39467671886</ele>
        <time>2020-03-12T13:48:53Z</time>
      </trkpt>
      <trkpt lat="43.46479" lon="2.32468">
        <ele>793.1245098561</ele>
        <time>2020-03-12T13:49:00Z</time>
      </trkpt>
      <trkpt lat="43.46487" lon="2.32461">
        <ele>790.42420009617</ele>
        <time>2020-03-12T13:49:10Z</time>
      </trkpt>
      <trkpt lat="43.46495" lon="2.3246">
        <ele>789.52622544579</ele>
        <time>2020-03-12T13:49:59Z</time>
      </trkpt>
      <trkpt lat="43.46504" lon="2.32461">
        <ele>788.36731303483</ele>
        <time>2020-03-12T13:50:07Z</time>
      </trkpt>
      <trkpt lat="43.46512" lon="2.32464">
        <ele>789.31862515025</ele>
        <time>2020-03-12T13:50:15Z</time>
      </trkpt>
      <trkpt lat="43.4652" lon="2.32463">
        <ele>791.10406762548</ele>
        <time>2020-03-12T13:50:26Z</time>
      </trkpt>
      <trkpt lat="43.46528" lon="2.32467">
        <ele>790.37522818055</ele>
        <time>2020-03-12T13:50:33Z</time>
      </trkpt>
      <trkpt lat="43.46535" lon="2.32475">
        <ele>788.55286614969</ele>
        <time>2020-03-12T13:50:50Z</time>
      </trkpt>
      <trkpt lat="43.46542" lon="2.32483">
        <ele>787.90077633318</ele>
        <time>2020-03-12T13:51:14Z</time>
      </trkpt>
      <trkpt lat="43.46544" lon="2.32471">
        <ele>781.57816854585</ele>
        <time>2020-03-12T13:51:37Z</time>
      </trkpt>
      <trkpt lat="43.4654" lon="2.32461">
        <ele>779.65422531869</ele>
        <time>2020-03-12T13:51:46Z</time>
      </trkpt>
      <trkpt lat="43.46534" lon="2.32453">
        <ele>780.03437115997</ele>
        <time>2020-03-12T13:52:05Z</time>
      </trkpt>
      <trkpt lat="43.46529" lon="2.32443">
        <ele>782.3020047918</ele>
        <time>2020-03-12T13:52:15Z</time>
      </trkpt>
      <trkpt lat="43.46525" lon="2.32433">
        <ele>782.96679456718</ele>
        <time>2020-03-12T13:52:21Z</time>
      </trkpt>
      <trkpt lat="43.46522" lon="2.32421">
        <ele>784.0058928784</ele>
        <time>2020-03-12T13:52:28Z</time>
      </trkpt>
      <trkpt lat="43.4652" lon="2.3241">
        <ele>784.79790094402</ele>
        <time>2020-03-12T13:52:35Z</time>
      </trkpt>
      <trkpt lat="43.46521" lon="2.32399">
        <ele>786.38189707696</ele>
        <time>2020-03-12T13:52:43Z</time>
      </trkpt>
      <trkpt lat="43.46526" lon="2.32389">
        <ele>786.42128424812</ele>
        <time>2020-03-12T13:52:51Z</time>
      </trkpt>
      <trkpt lat="43.46528" lon="2.32378">
        <ele>785.23584303353</ele>
        <time>2020-03-12T13:52:58Z</time>
      </trkpt>
      <trkpt lat="43.46531" lon="2.32368">
        <ele>784.95235296804</ele>
        <time>2020-03-12T13:53:07Z</time>
      </trkpt>
      <trkpt lat="43.46537" lon="2.32359">
        <ele>786.86678784993</ele>
        <time>2020-03-12T13:53:14Z</time>
      </trkpt>
      <trkpt lat="43.46543" lon="2.32352">
        <ele>790.78958490863</ele>
        <time>2020-03-12T13:53:21Z</time>
      </trkpt>
      <trkpt lat="43.4655" lon="2.32344">
        <ele>793.56411692034</ele>
        <time>2020-03-12T13:53:30Z</time>
      </trkpt>
      <trkpt lat="43.46555" lon="2.32335">
        <ele>792.83696011826</ele>
        <time>2020-03-12T13:53:38Z</time>
      </trkpt>
      <trkpt lat="43.46561" lon="2.32327">
        <ele>792.36969844345</ele>
        <time>2020-03-12T13:53:45Z</time>
      </trkpt>
      <trkpt lat="43.46567" lon="2.3232">
        <ele>791.39673872851</ele>
        <time>2020-03-12T13:53:52Z</time>
      </trkpt>
      <trkpt lat="43.46574" lon="2.32312">
        <ele>790.15986689739</ele>
        <time>2020-03-12T13:53:58Z</time>
      </trkpt>
      <trkpt lat="43.4658" lon="2.32305">
        <ele>788.4973294232</ele>
        <time>2020-03-12T13:54:05Z</time>
      </trkpt>
      <trkpt lat="43.46585" lon="2.32295">
        <ele>785.83284940664</ele>
        <time>2020-03-12T13:54:12Z</time>
      </trkpt>
      <trkpt lat="43.46592" lon="2.32289">
        <ele>784.84562160075</ele>
        <time>2020-03-12T13:54:18Z</time>
      </trkpt>
      <trkpt lat="43.46598" lon="2.32282">
        <ele>782.79380950145</ele>
        <time>2020-03-12T13:54:25Z</time>
      </trkpt>
      <trkpt lat="43.46604" lon="2.32273">
        <ele>782.55202589929</ele>
        <time>2020-03-12T13:54:32Z</time>
      </trkpt>
      <trkpt lat="43.46609" lon="2.32263">
        <ele>782.92612049915</ele>
        <time>2020-03-12T13:54:39Z</time>
      </trkpt>
      <trkpt lat="43.46615" lon="2.32253">
        <ele>782.3521036543</ele>
        <time>2020-03-12T13:54:48Z</time>
      </trkpt>
      <trkpt lat="43.4662" lon="2.32244">
        <ele>781.6879859427</ele>
        <time>2020-03-12T13:54:56Z</time>
      </trkpt>
      <trkpt lat="43.46624" lon="2.32234">
        <ele>780.98070600629</ele>
        <time>2020-03-12T13:55:03Z</time>
      </trkpt>
      <trkpt lat="43.46629" lon="2.32226">
        <ele>781.68521771953</ele>
        <time>2020-03-12T13:55:10Z</time>
      </trkpt>
      <trkpt lat="43.46632" lon="2.32216">
        <ele>780.39654568024</ele>
        <time>2020-03-12T13:55:17Z</time>
      </trkpt>
      <trkpt lat="43.46635" lon="2.32205">
        <ele>778.58836454619</ele>
        <time>2020-03-12T13:55:25Z</time>
      </trkpt>
      <trkpt lat="43.46637" lon="2.32194">
        <ele>776.42031264026</ele>
        <time>2020-03-12T13:55:32Z</time>
      </trkpt>
      <trkpt lat="43.46641" lon="2.32183">
        <ele>775.70483255386</ele>
        <time>2020-03-12T13:55:40Z</time>
      </trkpt>
      <trkpt lat="43.46643" lon="2.32172">
        <ele>774.57840074319</ele>
        <time>2020-03-12T13:55:49Z</time>
      </trkpt>
      <trkpt lat="43.46645" lon="2.32161">
        <ele>774.87527814042</ele>
        <time>2020-03-12T13:55:57Z</time>
      </trkpt>
      <trkpt lat="43.46647" lon="2.32149">
        <ele>776.39886843041</ele>
        <time>2020-03-12T13:56:06Z</time>
      </trkpt>
      <trkpt lat="43.4665" lon="2.32138">
        <ele>777.61326842103</ele>
        <time>2020-03-12T13:56:15Z</time>
      </trkpt>
      <trkpt lat="43.46653" lon="2.32127">
        <ele>778.42976184096</ele>
        <time>2020-03-12T13:56:24Z</time>
      </trkpt>
      <trkpt lat="43.46653" lon="2.32115">
        <ele>778.46892402135</ele>
        <time>2020-03-12T13:56:33Z</time>
      </trkpt>
      <trkpt lat="43.46651" lon="2.32103">
        <ele>779.86310580373</ele>
        <time>2020-03-12T13:56:45Z</time>
      </trkpt>
      <trkpt lat="43.46649" lon="2.32092">
        <ele>779.48611016199</ele>
        <time>2020-03-12T13:56:56Z</time>
      </trkpt>
      <trkpt lat="43.46654" lon="2.32082">
        <ele>780.41908909101</ele>
        <time>2020-03-12T13:57:05Z</time>
      </trkpt>
      <trkpt lat="43.46658" lon="2.32071">
        <ele>780.10090359207</ele>
        <time>2020-03-12T13:57:14Z</time>
      </trkpt>
      <trkpt lat="43.46661" lon="2.32059">
        <ele>780.02809810359</ele>
        <time>2020-03-12T13:57:21Z</time>
      </trkpt>
      <trkpt lat="43.46663" lon="2.32048">
        <ele>780.7076670602</ele>
        <time>2020-03-12T13:57:28Z</time>
      </trkpt>
      <trkpt lat="43.46667" lon="2.32038">
        <ele>781.23203062452</ele>
        <time>2020-03-12T13:57:34Z</time>
      </trkpt>
      <trkpt lat="43.46672" lon="2.32029">
        <ele>783.12386840489</ele>
        <time>2020-03-12T13:57:41Z</time>
      </trkpt>
      <trkpt lat="43.46673" lon="2.32017">
        <ele>784.82506206352</ele>
        <time>2020-03-12T13:57:50Z</time>
      </trkpt>
      <trkpt lat="43.46677" lon="2.32006">
        <ele>786.52844989672</ele>
        <time>2020-03-12T13:58:01Z</time>
      </trkpt>
      <trkpt lat="43.4668" lon="2.31995">
        <ele>788.18915461004</ele>
        <time>2020-03-12T13:58:09Z</time>
      </trkpt>
      <trkpt lat="43.46683" lon="2.31984">
        <ele>789.42782096379</ele>
        <time>2020-03-12T13:58:22Z</time>
      </trkpt>
      <trkpt lat="43.46685" lon="2.31974">
        <ele>789.98030153383</ele>
        <time>2020-03-12T13:58:29Z</time>
      </trkpt>
      <trkpt lat="43.46687" lon="2.31963">
        <ele>790.60812578164</ele>
        <time>2020-03-12T13:58:37Z</time>
      </trkpt>
      <trkpt lat="43.46692" lon="2.31953">
        <ele>791.0978185134</ele>
        <time>2020-03-12T13:58:46Z</time>
      </trkpt>
      <trkpt lat="43.46697" lon="2.31943">
        <ele>788.93195624091</ele>
        <time>2020-03-12T13:58:54Z</time>
      </trkpt>
      <trkpt lat="43.46701" lon="2.31933">
        <ele>787.24034868181</ele>
        <time>2020-03-12T13:59:00Z</time>
      </trkpt>
      <trkpt lat="43.46706" lon="2.31923">
        <ele>784.42603084072</ele>
        <time>2020-03-12T13:59:06Z</time>
      </trkpt>
      <trkpt lat="43.46709" lon="2.31912">
        <ele>782.75975559186</ele>
        <time>2020-03-12T13:59:13Z</time>
      </trkpt>
      <trkpt lat="43.46711" lon="2.31901">
        <ele>780.88110180385</ele>
        <time>2020-03-12T13:59:19Z</time>
      </trkpt>
      <trkpt lat="43.46713" lon="2.3189">
        <ele>779.02907986287</ele>
        <time>2020-03-12T13:59:26Z</time>
      </trkpt>
      <trkpt lat="43.46714" lon="2.31879">
        <ele>779.13609085791</ele>
        <time>2020-03-12T13:59:33Z</time>
      </trkpt>
      <trkpt lat="43.46716" lon="2.31868">
        <ele>777.15812378284</ele>
        <time>2020-03-12T13:59:40Z</time>
      </trkpt>
      <trkpt lat="43.46718" lon="2.31856">
        <ele>776.34068759996</ele>
        <time>2020-03-12T13:59:48Z</time>
      </trkpt>
      <trkpt lat="43.4672" lon="2.31845">
        <ele>776.33079674002</ele>
        <time>2020-03-12T13:59:56Z</time>
      </trkpt>
      <trkpt lat="43.46721" lon="2.31833">
        <ele>774.08984677959</ele>
        <time>2020-03-12T14:00:05Z</time>
      </trkpt>
      <trkpt lat="43.46722" lon="2.31822">
        <ele>772.52733443025</ele>
        <time>2020-03-12T14:00:13Z</time>
      </trkpt>
      <trkpt lat="43.46723" lon="2.3181">
        <ele>770.82685061451</ele>
        <time>2020-03-12T14:00:21Z</time>
      </trkpt>
      <trkpt lat="43.4672" lon="2.31799">
        <ele>770.88257138059</ele>
        <time>2020-03-12T14:00:28Z</time>
      </trkpt>
      <trkpt lat="43.46717" lon="2.31788">
        <ele>771.44674243405</ele>
        <time>2020-03-12T14:00:35Z</time>
      </trkpt>
      <trkpt lat="43.46712" lon="2.31778">
        <ele>771.95555562899</ele>
        <time>2020-03-12T14:00:44Z</time>
      </trkpt>
      <trkpt lat="43.46705" lon="2.3177">
        <ele>774.24781331792</ele>
        <time>2020-03-12T14:00:55Z</time>
      </trkpt>
      <trkpt lat="43.46698" lon="2.31764">
        <ele>774.98708189372</ele>
        <time>2020-03-12T14:01:03Z</time>
      </trkpt>
      <trkpt lat="43.46691" lon="2.31758">
        <ele>776.17683458235</ele>
        <time>2020-03-12T14:01:12Z</time>
      </trkpt>
      <trkpt lat="43.46685" lon="2.31749">
        <ele>779.45497734193</ele>
        <time>2020-03-12T14:01:26Z</time>
      </trkpt>
      <trkpt lat="43.46679" lon="2.31743">
        <ele>778.89598040748</ele>
        <time>2020-03-12T14:01:34Z</time>
      </trkpt>
      <trkpt lat="43.46671" lon="2.31738">
        <ele>779.56752310041</ele>
        <time>2020-03-12T14:01:41Z</time>
      </trkpt>
      <trkpt lat="43.46664" lon="2.31733">
        <ele>782.49417213537</ele>
        <time>2020-03-12T14:01:51Z</time>
      </trkpt>
      <trkpt lat="43.46656" lon="2.31729">
        <ele>781.49882538803</ele>
        <time>2020-03-12T14:02:00Z</time>
      </trkpt>
      <trkpt lat="43.46647" lon="2.31727">
        <ele>780.65497097187</ele>
        <time>2020-03-12T14:02:08Z</time>
      </trkpt>
      <trkpt lat="43.4664" lon="2.31723">
        <ele>781.03324294649</ele>
        <time>2020-03-12T14:02:16Z</time>
      </trkpt>
      <trkpt lat="43.46633" lon="2.31717">
        <ele>780.0021939557</ele>
        <time>2020-03-12T14:02:22Z</time>
      </trkpt>
      <trkpt lat="43.46625" lon="2.31713">
        <ele>781.89544598106</ele>
        <time>2020-03-12T14:02:27Z</time>
      </trkpt>
      <trkpt lat="43.46623" lon="2.31701">
        <ele>781.85450806934</ele>
        <time>2020-03-12T14:02:38Z</time>
      </trkpt>
      <trkpt lat="43.46627" lon="2.3169">
        <ele>785.50713700242</ele>
        <time>2020-03-12T14:03:01Z</time>
      </trkpt>
      <trkpt lat="43.46635" lon="2.31689">
        <ele>788.27390002273</ele>
        <time>2020-03-12T14:03:13Z</time>
      </trkpt>
      <trkpt lat="43.46643" lon="2.31687">
        <ele>789.43694294617</ele>
        <time>2020-03-12T14:03:19Z</time>
      </trkpt>
      <trkpt lat="43.46651" lon="2.31683">
        <ele>791.77338162903</ele>
        <time>2020-03-12T14:03:25Z</time>
      </trkpt>
      <trkpt lat="43.46659" lon="2.31678">
        <ele>793.60875771008</ele>
        <time>2020-03-12T14:03:30Z</time>
      </trkpt>
      <trkpt lat="43.46668" lon="2.31674">
        <ele>793.03071516659</ele>
        <time>2020-03-12T14:03:36Z</time>
      </trkpt>
      <trkpt lat="43.46676" lon="2.31671">
        <ele>794.9982718993</ele>
        <time>2020-03-12T14:03:43Z</time>
      </trkpt>
      <trkpt lat="43.46683" lon="2.31667">
        <ele>795.94773608446</ele>
        <time>2020-03-12T14:03:50Z</time>
      </trkpt>
      <trkpt lat="43.4669" lon="2.31661">
        <ele>794.82474882714</ele>
        <time>2020-03-12T14:03:56Z</time>
      </trkpt>
      <trkpt lat="43.46697" lon="2.31655">
        <ele>792.76255338173</ele>
        <time>2020-03-12T14:04:03Z</time>
      </trkpt>
      <trkpt lat="43.46702" lon="2.31646">
        <ele>789.29459873494</ele>
        <time>2020-03-12T14:04:09Z</time>
      </trkpt>
      <trkpt lat="43.46707" lon="2.31638">
        <ele>785.87470202986</ele>
        <time>2020-03-12T14:04:15Z</time>
      </trkpt>
      <trkpt lat="43.46714" lon="2.31629">
        <ele>781.19749252219</ele>
        <time>2020-03-12T14:04:23Z</time>
      </trkpt>
      <trkpt lat="43.46719" lon="2.31621">
        <ele>778.59755431768</ele>
        <time>2020-03-12T14:04:30Z</time>
      </trkpt>
      <trkpt lat="43.46725" lon="2.31612">
        <ele>776.33649428561</ele>
        <time>2020-03-12T14:04:37Z</time>
      </trkpt>
      <trkpt lat="43.46732" lon="2.31607">
        <ele>776.37649039179</ele>
        <time>2020-03-12T14:04:44Z</time>
      </trkpt>
      <trkpt lat="43.4674" lon="2.31603">
        <ele>777.69190121535</ele>
        <time>2020-03-12T14:04:51Z</time>
      </trkpt>
      <trkpt lat="43.46748" lon="2.31603">
        <ele>779.54052616656</ele>
        <time>2020-03-12T14:04:59Z</time>
      </trkpt>
      <trkpt lat="43.46756" lon="2.31599">
        <ele>779.56031305622</ele>
        <time>2020-03-12T14:05:06Z</time>
      </trkpt>
      <trkpt lat="43.46764" lon="2.31597">
        <ele>778.5142182596</ele>
        <time>2020-03-12T14:05:14Z</time>
      </trkpt>
      <trkpt lat="43.46773" lon="2.31597">
        <ele>779.43368470389</ele>
        <time>2020-03-12T14:05:22Z</time>
      </trkpt>
      <trkpt lat="43.46781" lon="2.31598">
        <ele>781.22211980913</ele>
        <time>2020-03-12T14:05:32Z</time>
      </trkpt>
      <trkpt lat="43.46789" lon="2.31595">
        <ele>779.76983025018</ele>
        <time>2020-03-12T14:05:41Z</time>
      </trkpt>
      <trkpt lat="43.46798" lon="2.31595">
        <ele>780.91044988204</ele>
        <time>2020-03-12T14:05:47Z</time>
      </trkpt>
      <trkpt lat="43.46807" lon="2.31594">
        <ele>780.07333646994</ele>
        <time>2020-03-12T14:05:54Z</time>
      </trkpt>
      <trkpt lat="43.46815" lon="2.31593">
        <ele>779.89256015886</ele>
        <time>2020-03-12T14:06:00Z</time>
      </trkpt>
      <trkpt lat="43.46823" lon="2.31594">
        <ele>778.10728510655</ele>
        <time>2020-03-12T14:06:07Z</time>
      </trkpt>
      <trkpt lat="43.46831" lon="2.31592">
        <ele>776.52838102262</ele>
        <time>2020-03-12T14:06:13Z</time>
      </trkpt>
      <trkpt lat="43.4684" lon="2.31593">
        <ele>777.21491316054</ele>
        <time>2020-03-12T14:06:21Z</time>
      </trkpt>
      <trkpt lat="43.46848" lon="2.31595">
        <ele>779.50094875786</ele>
        <time>2020-03-12T14:06:31Z</time>
      </trkpt>
      <trkpt lat="43.46857" lon="2.31596">
        <ele>780.35024364293</ele>
        <time>2020-03-12T14:06:41Z</time>
      </trkpt>
      <trkpt lat="43.46865" lon="2.31595">
        <ele>782.47263066098</ele>
        <time>2020-03-12T14:06:52Z</time>
      </trkpt>
      <trkpt lat="43.46873" lon="2.31593">
        <ele>785.68025879655</ele>
        <time>2020-03-12T14:07:02Z</time>
      </trkpt>
      <trkpt lat="43.4688" lon="2.31585">
        <ele>785.5150702307</ele>
        <time>2020-03-12T14:07:11Z</time>
      </trkpt>
      <trkpt lat="43.46886" lon="2.31576">
        <ele>783.49509947188</ele>
        <time>2020-03-12T14:07:21Z</time>
      </trkpt>
      <trkpt lat="43.46894" lon="2.3157">
        <ele>781.28906059358</ele>
        <time>2020-03-12T14:07:32Z</time>
      </trkpt>
      <trkpt lat="43.46898" lon="2.31561">
        <ele>780.7469896581</ele>
        <time>2020-03-12T14:07:40Z</time>
      </trkpt>
      <trkpt lat="43.46904" lon="2.31552">
        <ele>780.40673307795</ele>
        <time>2020-03-12T14:07:50Z</time>
      </trkpt>
      <trkpt lat="43.46908" lon="2.31542">
        <ele>778.29428204056</ele>
        <time>2020-03-12T14:07:59Z</time>
      </trkpt>
      <trkpt lat="43.46915" lon="2.31535">
        <ele>778.66479658615</ele>
        <time>2020-03-12T14:08:12Z</time>
      </trkpt>
      <trkpt lat="43.46923" lon="2.3153">
        <ele>779.34389024694</ele>
        <time>2020-03-12T14:08:37Z</time>
      </trkpt>
      <trkpt lat="43.46928" lon="2.3152">
        <ele>784.12783487421</ele>
        <time>2020-03-12T14:08:49Z</time>
      </trkpt>
      <trkpt lat="43.46933" lon="2.31512">
        <ele>786.67237767298</ele>
        <time>2020-03-12T14:08:56Z</time>
      </trkpt>
      <trkpt lat="43.46938" lon="2.31502">
        <ele>790.7302005589</ele>
        <time>2020-03-12T14:09:05Z</time>
      </trkpt>
      <trkpt lat="43.46943" lon="2.31492">
        <ele>792.21984949522</ele>
        <time>2020-03-12T14:09:14Z</time>
      </trkpt>
      <trkpt lat="43.46948" lon="2.31483">
        <ele>791.35124411061</ele>
        <time>2020-03-12T14:09:20Z</time>
      </trkpt>
      <trkpt lat="43.46952" lon="2.31474">
        <ele>791.23308574781</ele>
        <time>2020-03-12T14:09:26Z</time>
      </trkpt>
      <trkpt lat="43.46956" lon="2.31464">
        <ele>791.30720426515</ele>
        <time>2020-03-12T14:09:32Z</time>
      </trkpt>
      <trkpt lat="43.4696" lon="2.31454">
        <ele>792.68741332088</ele>
        <time>2020-03-12T14:09:38Z</time>
      </trkpt>
      <trkpt lat="43.46964" lon="2.31444">
        <ele>793.77008394804</ele>
        <time>2020-03-12T14:09:45Z</time>
      </trkpt>
      <trkpt lat="43.46966" lon="2.31434">
        <ele>795.43750870042</ele>
        <time>2020-03-12T14:09:52Z</time>
      </trkpt>
      <trkpt lat="43.46969" lon="2.31423">
        <ele>798.52102489397</ele>
        <time>2020-03-12T14:10:00Z</time>
      </trkpt>
      <trkpt lat="43.46972" lon="2.31412">
        <ele>800.05595003255</ele>
        <time>2020-03-12T14:10:08Z</time>
      </trkpt>
      <trkpt lat="43.46975" lon="2.31401">
        <ele>798.80405031145</ele>
        <time>2020-03-12T14:10:16Z</time>
      </trkpt>
      <trkpt lat="43.46977" lon="2.3139">
        <ele>796.04721886199</ele>
        <time>2020-03-12T14:10:24Z</time>
      </trkpt>
      <trkpt lat="43.4698" lon="2.31379">
        <ele>794.88123003207</ele>
        <time>2020-03-12T14:10:32Z</time>
      </trkpt>
      <trkpt lat="43.46982" lon="2.31368">
        <ele>791.55958581809</ele>
        <time>2020-03-12T14:10:40Z</time>
      </trkpt>
      <trkpt lat="43.46986" lon="2.31358">
        <ele>790.55200189631</ele>
        <time>2020-03-12T14:10:47Z</time>
      </trkpt>
      <trkpt lat="43.46989" lon="2.31347">
        <ele>789.15161008574</ele>
        <time>2020-03-12T14:10:55Z</time>
      </trkpt>
      <trkpt lat="43.4699" lon="2.31335">
        <ele>787.6776385894</ele>
        <time>2020-03-12T14:11:04Z</time>
      </trkpt>
      <trkpt lat="43.46992" lon="2.31325">
        <ele>786.6908398727</ele>
        <time>2020-03-12T14:11:11Z</time>
      </trkpt>
      <trkpt lat="43.46996" lon="2.31313">
        <ele>785.92782267742</ele>
        <time>2020-03-12T14:11:19Z</time>
      </trkpt>
      <trkpt lat="43.46998" lon="2.31303">
        <ele>785.08585439622</ele>
        <time>2020-03-12T14:11:26Z</time>
      </trkpt>
      <trkpt lat="43.46999" lon="2.31291">
        <ele>784.63771817274</ele>
        <time>2020-03-12T14:11:34Z</time>
      </trkpt>
      <trkpt lat="43.46998" lon="2.3128">
        <ele>783.51722365431</ele>
        <time>2020-03-12T14:11:42Z</time>
      </trkpt>
      <trkpt lat="43.47" lon="2.31267">
        <ele>783.62129101623</ele>
        <time>2020-03-12T14:11:50Z</time>
      </trkpt>
      <trkpt lat="43.47002" lon="2.31255">
        <ele>783.78312728927</ele>
        <time>2020-03-12T14:11:59Z</time>
      </trkpt>
      <trkpt lat="43.47003" lon="2.31243">
        <ele>784.32976863999</ele>
        <time>2020-03-12T14:12:08Z</time>
      </trkpt>
      <trkpt lat="43.47005" lon="2.31231">
        <ele>784.36668069661</ele>
        <time>2020-03-12T14:12:16Z</time>
      </trkpt>
      <trkpt lat="43.47006" lon="2.3122">
        <ele>784.79706813116</ele>
        <time>2020-03-12T14:12:24Z</time>
      </trkpt>
      <trkpt lat="43.47007" lon="2.31209">
        <ele>784.3776379507</ele>
        <time>2020-03-12T14:12:31Z</time>
      </trkpt>
      <trkpt lat="43.4701" lon="2.31199">
        <ele>784.91372900829</ele>
        <time>2020-03-12T14:12:38Z</time>
      </trkpt>
      <trkpt lat="43.47014" lon="2.31189">
        <ele>784.96268829424</ele>
        <time>2020-03-12T14:12:45Z</time>
      </trkpt>
      <trkpt lat="43.47017" lon="2.31178">
        <ele>787.07472262811</ele>
        <time>2020-03-12T14:12:57Z</time>
      </trkpt>
      <trkpt lat="43.47018" lon="2.31167">
        <ele>789.50603716541</ele>
        <time>2020-03-12T14:13:06Z</time>
      </trkpt>
      <trkpt lat="43.47018" lon="2.31156">
        <ele>791.30766702443</ele>
        <time>2020-03-12T14:13:17Z</time>
      </trkpt>
      <trkpt lat="43.4702" lon="2.31144">
        <ele>791.43083011732</ele>
        <time>2020-03-12T14:13:27Z</time>
      </trkpt>
      <trkpt lat="43.47022" lon="2.31133">
        <ele>791.00398065988</ele>
        <time>2020-03-12T14:14:00Z</time>
      </trkpt>
      <trkpt lat="43.47024" lon="2.31121">
        <ele>794.36200426798</ele>
        <time>2020-03-12T14:14:11Z</time>
      </trkpt>
      <trkpt lat="43.47024" lon="2.3111">
        <ele>794.67445519008</ele>
        <time>2020-03-12T14:14:21Z</time>
      </trkpt>
      <trkpt lat="43.47026" lon="2.311">
        <ele>794.17065972369</ele>
        <time>2020-03-12T14:14:30Z</time>
      </trkpt>
      <trkpt lat="43.47024" lon="2.31089">
        <ele>795.68347378168</ele>
        <time>2020-03-12T14:14:35Z</time>
      </trkpt>
      <trkpt lat="43.47023" lon="2.31076">
        <ele>796.58660882153</ele>
        <time>2020-03-12T14:14:40Z</time>
      </trkpt>
      <trkpt lat="43.47023" lon="2.31064">
        <ele>798.61815393902</ele>
        <time>2020-03-12T14:14:46Z</time>
      </trkpt>
      <trkpt lat="43.47024" lon="2.31053">
        <ele>799.7519248547</ele>
        <time>2020-03-12T14:14:51Z</time>
      </trkpt>
      <trkpt lat="43.47024" lon="2.31041">
        <ele>801.14578169771</ele>
        <time>2020-03-12T14:15:01Z</time>
      </trkpt>
      <trkpt lat="43.47022" lon="2.3103">
        <ele>800.28788673226</ele>
        <time>2020-03-12T14:15:10Z</time>
      </trkpt>
      <trkpt lat="43.47018" lon="2.3102">
        <ele>799.31924263667</ele>
        <time>2020-03-12T14:15:19Z</time>
      </trkpt>
      <trkpt lat="43.47014" lon="2.3101">
        <ele>799.17121352628</ele>
        <time>2020-03-12T14:15:26Z</time>
      </trkpt>
      <trkpt lat="43.47007" lon="2.31003">
        <ele>798.78604992665</ele>
        <time>2020-03-12T14:15:32Z</time>
      </trkpt>
      <trkpt lat="43.47003" lon="2.30994">
        <ele>798.08319614269</ele>
        <time>2020-03-12T14:15:39Z</time>
      </trkpt>
      <trkpt lat="43.46999" lon="2.30984">
        <ele>798.24132360704</ele>
        <time>2020-03-12T14:15:48Z</time>
      </trkpt>
      <trkpt lat="43.46996" lon="2.30973">
        <ele>800.12722339109</ele>
        <time>2020-03-12T14:15:56Z</time>
      </trkpt>
      <trkpt lat="43.46991" lon="2.30963">
        <ele>800.76876512077</ele>
        <time>2020-03-12T14:16:03Z</time>
      </trkpt>
      <trkpt lat="43.46987" lon="2.30952">
        <ele>802.49428955931</ele>
        <time>2020-03-12T14:16:13Z</time>
      </trkpt>
      <trkpt lat="43.46983" lon="2.30942">
        <ele>801.45560387149</ele>
        <time>2020-03-12T14:16:19Z</time>
      </trkpt>
      <trkpt lat="43.4698" lon="2.30931">
        <ele>800.6363090165</ele>
        <time>2020-03-12T14:16:27Z</time>
      </trkpt>
      <trkpt lat="43.46975" lon="2.30921">
        <ele>801.53191205114</ele>
        <time>2020-03-12T14:16:35Z</time>
      </trkpt>
      <trkpt lat="43.46971" lon="2.30911">
        <ele>801.63609622885</ele>
        <time>2020-03-12T14:16:46Z</time>
      </trkpt>
      <trkpt lat="43.46967" lon="2.30901">
        <ele>804.29181461409</ele>
        <time>2020-03-12T14:16:55Z</time>
      </trkpt>
      <trkpt lat="43.46963" lon="2.30891">
        <ele>803.8194292672</ele>
        <time>2020-03-12T14:17:03Z</time>
      </trkpt>
      <trkpt lat="43.46957" lon="2.30885">
        <ele>801.67244340293</ele>
        <time>2020-03-12T14:17:09Z</time>
      </trkpt>
      <trkpt lat="43.46951" lon="2.30878">
        <ele>799.830640167</ele>
        <time>2020-03-12T14:17:15Z</time>
      </trkpt>
      <trkpt lat="43.46944" lon="2.3087">
        <ele>800.46037624404</ele>
        <time>2020-03-12T14:17:25Z</time>
      </trkpt>
      <trkpt lat="43.46938" lon="2.30862">
        <ele>799.62137715053</ele>
        <time>2020-03-12T14:17:34Z</time>
      </trkpt>
      <trkpt lat="43.46932" lon="2.30855">
        <ele>797.06257276889</ele>
        <time>2020-03-12T14:17:41Z</time>
      </trkpt>
      <trkpt lat="43.46926" lon="2.30849">
        <ele>796.31539611239</ele>
        <time>2020-03-12T14:17:48Z</time>
      </trkpt>
      <trkpt lat="43.46919" lon="2.30844">
        <ele>795.50805335771</ele>
        <time>2020-03-12T14:17:53Z</time>
      </trkpt>
      <trkpt lat="43.46913" lon="2.30837">
        <ele>793.38349867053</ele>
        <time>2020-03-12T14:18:00Z</time>
      </trkpt>
      <trkpt lat="43.4691" lon="2.30826">
        <ele>796.68684665672</ele>
        <time>2020-03-12T14:18:08Z</time>
      </trkpt>
      <trkpt lat="43.46909" lon="2.30815">
        <ele>797.09722206742</ele>
        <time>2020-03-12T14:18:15Z</time>
      </trkpt>
      <trkpt lat="43.46913" lon="2.30804">
        <ele>794.09968577418</ele>
        <time>2020-03-12T14:18:22Z</time>
      </trkpt>
      <trkpt lat="43.46918" lon="2.30795">
        <ele>791.38414256368</ele>
        <time>2020-03-12T14:18:32Z</time>
      </trkpt>
      <trkpt lat="43.46924" lon="2.30785">
        <ele>788.61767215095</ele>
        <time>2020-03-12T14:18:41Z</time>
      </trkpt>
      <trkpt lat="43.46931" lon="2.3078">
        <ele>787.03702829406</ele>
        <time>2020-03-12T14:18:54Z</time>
      </trkpt>
      <trkpt lat="43.46939" lon="2.30777">
        <ele>788.72285980638</ele>
        <time>2020-03-12T14:19:02Z</time>
      </trkpt>
      <trkpt lat="43.46948" lon="2.30775">
        <ele>791.75292754918</ele>
        <time>2020-03-12T14:19:14Z</time>
      </trkpt>
      <trkpt lat="43.46955" lon="2.30775">
        <ele>795.63607270643</ele>
        <time>2020-03-12T14:19:22Z</time>
      </trkpt>
      <trkpt lat="43.46963" lon="2.30772">
        <ele>799.54850053322</ele>
        <time>2020-03-12T14:19:28Z</time>
      </trkpt>
      <trkpt lat="43.46971" lon="2.30767">
        <ele>801.07859002054</ele>
        <time>2020-03-12T14:20:04Z</time>
      </trkpt>
      <trkpt lat="43.46978" lon="2.30761">
        <ele>800.87818314508</ele>
        <time>2020-03-12T14:25:10Z</time>
      </trkpt>
      <trkpt lat="43.46972" lon="2.30754">
        <ele>799.90758965909</ele>
        <time>2020-03-12T14:26:28Z</time>
      </trkpt>
      <trkpt lat="43.46964" lon="2.30753">
        <ele>799.31590418518</ele>
        <time>2020-03-12T14:26:37Z</time>
      </trkpt>
      <trkpt lat="43.46956" lon="2.30755">
        <ele>798.36860140972</ele>
        <time>2020-03-12T14:26:46Z</time>
      </trkpt>
      <trkpt lat="43.46947" lon="2.30756">
        <ele>797.85368082486</ele>
        <time>2020-03-12T14:26:56Z</time>
      </trkpt>
      <trkpt lat="43.46939" lon="2.30755">
        <ele>797.21470855642</ele>
        <time>2020-03-12T14:27:05Z</time>
      </trkpt>
      <trkpt lat="43.4693" lon="2.30754">
        <ele>798.21458870918</ele>
        <time>2020-03-12T14:27:14Z</time>
      </trkpt>
      <trkpt lat="43.46922" lon="2.30754">
        <ele>798.65139328316</ele>
        <time>2020-03-12T14:27:24Z</time>
      </trkpt>
      <trkpt lat="43.46914" lon="2.30752">
        <ele>799.13716270309</ele>
        <time>2020-03-12T14:27:36Z</time>
      </trkpt>
      <trkpt lat="43.46906" lon="2.30749">
        <ele>800.30181545019</ele>
        <time>2020-03-12T14:27:45Z</time>
      </trkpt>
      <trkpt lat="43.46898" lon="2.30745">
        <ele>801.47710022517</ele>
        <time>2020-03-12T14:27:55Z</time>
      </trkpt>
      <trkpt lat="43.4689" lon="2.3074">
        <ele>801.09522975888</ele>
        <time>2020-03-12T14:28:05Z</time>
      </trkpt>
      <trkpt lat="43.46882" lon="2.30737">
        <ele>801.09816539753</ele>
        <time>2020-03-12T14:28:16Z</time>
      </trkpt>
      <trkpt lat="43.46873" lon="2.30735">
        <ele>801.73626958206</ele>
        <time>2020-03-12T14:28:25Z</time>
      </trkpt>
      <trkpt lat="43.46865" lon="2.30732">
        <ele>803.68818663061</ele>
        <time>2020-03-12T14:28:36Z</time>
      </trkpt>
      <trkpt lat="43.46857" lon="2.30728">
        <ele>802.98589879461</ele>
        <time>2020-03-12T14:28:46Z</time>
      </trkpt>
      <trkpt lat="43.46849" lon="2.30723">
        <ele>803.55853793118</ele>
        <time>2020-03-12T14:28:57Z</time>
      </trkpt>
      <trkpt lat="43.46841" lon="2.30719">
        <ele>805.03393915482</ele>
        <time>2020-03-12T14:29:07Z</time>
      </trkpt>
      <trkpt lat="43.46833" lon="2.30713">
        <ele>805.46477719955</ele>
        <time>2020-03-12T14:29:16Z</time>
      </trkpt>
      <trkpt lat="43.46827" lon="2.30705">
        <ele>805.13933715224</ele>
        <time>2020-03-12T14:29:26Z</time>
      </trkpt>
      <trkpt lat="43.46818" lon="2.30704">
        <ele>807.04490585532</ele>
        <time>2020-03-12T14:29:36Z</time>
      </trkpt>
      <trkpt lat="43.4681" lon="2.307">
        <ele>807.5563697964</ele>
        <time>2020-03-12T14:29:46Z</time>
      </trkpt>
      <trkpt lat="43.46802" lon="2.30696">
        <ele>808.56905838847</ele>
        <time>2020-03-12T14:29:56Z</time>
      </trkpt>
      <trkpt lat="43.46793" lon="2.30692">
        <ele>809.98104725592</ele>
        <time>2020-03-12T14:30:06Z</time>
      </trkpt>
      <trkpt lat="43.46786" lon="2.30687">
        <ele>811.16002934054</ele>
        <time>2020-03-12T14:30:17Z</time>
      </trkpt>
      <trkpt lat="43.46778" lon="2.30682">
        <ele>812.37141691335</ele>
        <time>2020-03-12T14:30:28Z</time>
      </trkpt>
      <trkpt lat="43.4677" lon="2.30679">
        <ele>814.16455728654</ele>
        <time>2020-03-12T14:30:43Z</time>
      </trkpt>
      <trkpt lat="43.46761" lon="2.30678">
        <ele>815.73872049805</ele>
        <time>2020-03-12T14:30:51Z</time>
      </trkpt>
      <trkpt lat="43.46753" lon="2.30676">
        <ele>817.64071271289</ele>
        <time>2020-03-12T14:31:04Z</time>
      </trkpt>
      <trkpt lat="43.46745" lon="2.30676">
        <ele>820.76749437302</ele>
        <time>2020-03-12T14:31:15Z</time>
      </trkpt>
      <trkpt lat="43.46737" lon="2.30674">
        <ele>822.40926369745</ele>
        <time>2020-03-12T14:31:28Z</time>
      </trkpt>
      <trkpt lat="43.46728" lon="2.30671">
        <ele>824.81837044284</ele>
        <time>2020-03-12T14:31:41Z</time>
      </trkpt>
      <trkpt lat="43.4672" lon="2.30668">
        <ele>828.38930934109</ele>
        <time>2020-03-12T14:31:53Z</time>
      </trkpt>
      <trkpt lat="43.46713" lon="2.30666">
        <ele>829.88808994461</ele>
        <time>2020-03-12T14:32:00Z</time>
      </trkpt>
      <trkpt lat="43.46704" lon="2.30663">
        <ele>827.94215998519</ele>
        <time>2020-03-12T14:32:24Z</time>
      </trkpt>
      <trkpt lat="43.46698" lon="2.30654">
        <ele>831.08388584014</ele>
        <time>2020-03-12T14:32:33Z</time>
      </trkpt>
      <trkpt lat="43.46695" lon="2.30644">
        <ele>833.45247983281</ele>
        <time>2020-03-12T14:32:42Z</time>
      </trkpt>
      <trkpt lat="43.46693" lon="2.30632">
        <ele>835.98506653309</ele>
        <time>2020-03-12T14:32:51Z</time>
      </trkpt>
      <trkpt lat="43.46691" lon="2.30621">
        <ele>837.48640753888</ele>
        <time>2020-03-12T14:32:59Z</time>
      </trkpt>
      <trkpt lat="43.4669" lon="2.3061">
        <ele>839.00373545382</ele>
        <time>2020-03-12T14:33:08Z</time>
      </trkpt>
      <trkpt lat="43.46686" lon="2.30599">
        <ele>840.9481530292</ele>
        <time>2020-03-12T14:33:17Z</time>
      </trkpt>
      <trkpt lat="43.46683" lon="2.30588">
        <ele>842.23898163717</ele>
        <time>2020-03-12T14:33:26Z</time>
      </trkpt>
      <trkpt lat="43.46678" lon="2.30577">
        <ele>844.84829054121</ele>
        <time>2020-03-12T14:33:35Z</time>
      </trkpt>
      <trkpt lat="43.46677" lon="2.30565">
        <ele>844.86217636894</ele>
        <time>2020-03-12T14:33:45Z</time>
      </trkpt>
      <trkpt lat="43.46671" lon="2.30557">
        <ele>843.78455659933</ele>
        <time>2020-03-12T14:33:52Z</time>
      </trkpt>
      <trkpt lat="43.46665" lon="2.3055">
        <ele>842.7553195022</ele>
        <time>2020-03-12T14:34:00Z</time>
      </trkpt>
      <trkpt lat="43.46659" lon="2.30542">
        <ele>842.14396050945</ele>
        <time>2020-03-12T14:34:07Z</time>
      </trkpt>
      <trkpt lat="43.46654" lon="2.30534">
        <ele>842.61990097631</ele>
        <time>2020-03-12T14:34:14Z</time>
      </trkpt>
      <trkpt lat="43.46647" lon="2.30527">
        <ele>843.14916952886</ele>
        <time>2020-03-12T14:34:22Z</time>
      </trkpt>
      <trkpt lat="43.46641" lon="2.30521">
        <ele>843.66573141329</ele>
        <time>2020-03-12T14:34:30Z</time>
      </trkpt>
      <trkpt lat="43.46638" lon="2.3051">
        <ele>842.63425118197</ele>
        <time>2020-03-12T14:34:43Z</time>
      </trkpt>
      <trkpt lat="43.46629" lon="2.30505">
        <ele>840.70245776977</ele>
        <time>2020-03-12T14:34:53Z</time>
      </trkpt>
      <trkpt lat="43.46621" lon="2.30503">
        <ele>841.42086672131</ele>
        <time>2020-03-12T14:35:04Z</time>
      </trkpt>
      <trkpt lat="43.46613" lon="2.30501">
        <ele>841.66943183728</ele>
        <time>2020-03-12T14:35:13Z</time>
      </trkpt>
      <trkpt lat="43.46605" lon="2.30502">
        <ele>843.28371760435</ele>
        <time>2020-03-12T14:35:26Z</time>
      </trkpt>
      <trkpt lat="43.46597" lon="2.305">
        <ele>845.36690877378</ele>
        <time>2020-03-12T14:35:42Z</time>
      </trkpt>
      <trkpt lat="43.46589" lon="2.30498">
        <ele>845.12677484937</ele>
        <time>2020-03-12T14:35:50Z</time>
      </trkpt>
      <trkpt lat="43.46581" lon="2.30496">
        <ele>847.31390105467</ele>
        <time>2020-03-12T14:36:01Z</time>
      </trkpt>
      <trkpt lat="43.46572" lon="2.30496">
        <ele>850.19273015205</ele>
        <time>2020-03-12T14:36:12Z</time>
      </trkpt>
      <trkpt lat="43.46564" lon="2.30496">
        <ele>851.94643586129</ele>
        <time>2020-03-12T14:36:22Z</time>
      </trkpt>
      <trkpt lat="43.46556" lon="2.30497">
        <ele>853.24689823855</ele>
        <time>2020-03-12T14:36:41Z</time>
      </trkpt>
      <trkpt lat="43.46548" lon="2.30499">
        <ele>853.96571448352</ele>
        <time>2020-03-12T14:36:45Z</time>
      </trkpt>
      <trkpt lat="43.46539" lon="2.305">
        <ele>854.92960639019</ele>
        <time>2020-03-12T14:36:51Z</time>
      </trkpt>
      <trkpt lat="43.4653" lon="2.30501">
        <ele>855.36501090508</ele>
        <time>2020-03-12T14:37:03Z</time>
      </trkpt>
      <trkpt lat="43.46522" lon="2.30501">
        <ele>856.40961608384</ele>
        <time>2020-03-12T14:37:10Z</time>
      </trkpt>
      <trkpt lat="43.46513" lon="2.30503">
        <ele>858.15216369461</ele>
        <time>2020-03-12T14:37:18Z</time>
      </trkpt>
      <trkpt lat="43.46506" lon="2.30503">
        <ele>863.00603876356</ele>
        <time>2020-03-12T14:37:33Z</time>
      </trkpt>
      <trkpt lat="43.46497" lon="2.30504">
        <ele>864.34266127739</ele>
        <time>2020-03-12T14:37:47Z</time>
      </trkpt>
      <trkpt lat="43.46489" lon="2.30505">
        <ele>864.8419305291</ele>
        <time>2020-03-12T14:37:52Z</time>
      </trkpt>
      <trkpt lat="43.46481" lon="2.30506">
        <ele>864.05788178183</ele>
        <time>2020-03-12T14:38:01Z</time>
      </trkpt>
      <trkpt lat="43.46474" lon="2.30511">
        <ele>863.09891607147</ele>
        <time>2020-03-12T14:38:26Z</time>
      </trkpt>
      <trkpt lat="43.46465" lon="2.30511">
        <ele>864.38534303196</ele>
        <time>2020-03-12T14:38:35Z</time>
      </trkpt>
      <trkpt lat="43.46457" lon="2.30511">
        <ele>864.6749930568</ele>
        <time>2020-03-12T14:38:43Z</time>
      </trkpt>
      <trkpt lat="43.46448" lon="2.30512">
        <ele>865.31677129585</ele>
        <time>2020-03-12T14:38:51Z</time>
      </trkpt>
      <trkpt lat="43.46439" lon="2.30513">
        <ele>864.95604523364</ele>
        <time>2020-03-12T14:38:59Z</time>
      </trkpt>
      <trkpt lat="43.46431" lon="2.30516">
        <ele>865.61756040715</ele>
        <time>2020-03-12T14:39:08Z</time>
      </trkpt>
      <trkpt lat="43.46423" lon="2.30519">
        <ele>867.03736370895</ele>
        <time>2020-03-12T14:39:16Z</time>
      </trkpt>
      <trkpt lat="43.46414" lon="2.30519">
        <ele>869.14129167143</ele>
        <time>2020-03-12T14:39:25Z</time>
      </trkpt>
      <trkpt lat="43.46406" lon="2.30522">
        <ele>870.48638736643</ele>
        <time>2020-03-12T14:39:32Z</time>
      </trkpt>
      <trkpt lat="43.46399" lon="2.30526">
        <ele>870.04843243398</ele>
        <time>2020-03-12T14:39:38Z</time>
      </trkpt>
      <trkpt lat="43.46392" lon="2.30532">
        <ele>870.69495877996</ele>
        <time>2020-03-12T14:39:45Z</time>
      </trkpt>
      <trkpt lat="43.46384" lon="2.30535">
        <ele>869.22473995667</ele>
        <time>2020-03-12T14:39:51Z</time>
      </trkpt>
      <trkpt lat="43.46376" lon="2.30539">
        <ele>868.26884741616</ele>
        <time>2020-03-12T14:40:01Z</time>
      </trkpt>
      <trkpt lat="43.46368" lon="2.30544">
        <ele>868.81669444963</ele>
        <time>2020-03-12T14:40:20Z</time>
      </trkpt>
      <trkpt lat="43.46361" lon="2.30551">
        <ele>869.59989329334</ele>
        <time>2020-03-12T14:40:26Z</time>
      </trkpt>
      <trkpt lat="43.46353" lon="2.30553">
        <ele>869.09079632908</ele>
        <time>2020-03-12T14:40:31Z</time>
      </trkpt>
      <trkpt lat="43.46345" lon="2.30558">
        <ele>869.23385859095</ele>
        <time>2020-03-12T14:40:39Z</time>
      </trkpt>
      <trkpt lat="43.46338" lon="2.30561">
        <ele>868.59247904271</ele>
        <time>2020-03-12T14:40:44Z</time>
      </trkpt>
      <trkpt lat="43.4633" lon="2.30563">
        <ele>866.45751297008</ele>
        <time>2020-03-12T14:40:52Z</time>
      </trkpt>
      <trkpt lat="43.46322" lon="2.30566">
        <ele>868.87714090943</ele>
        <time>2020-03-12T14:41:00Z</time>
      </trkpt>
      <trkpt lat="43.46313" lon="2.30568">
        <ele>869.30345832184</ele>
        <time>2020-03-12T14:41:12Z</time>
      </trkpt>
      <trkpt lat="43.46305" lon="2.30572">
        <ele>868.6258724872</ele>
        <time>2020-03-12T14:41:17Z</time>
      </trkpt>
      <trkpt lat="43.46297" lon="2.30575">
        <ele>867.92154252343</ele>
        <time>2020-03-12T14:41:23Z</time>
      </trkpt>
      <trkpt lat="43.46289" lon="2.30576">
        <ele>869.9088493567</ele>
        <time>2020-03-12T14:41:32Z</time>
      </trkpt>
      <trkpt lat="43.4628" lon="2.30577">
        <ele>870.80518477317</ele>
        <time>2020-03-12T14:41:38Z</time>
      </trkpt>
      <trkpt lat="43.46272" lon="2.30578">
        <ele>870.24251041561</ele>
        <time>2020-03-12T14:41:44Z</time>
      </trkpt>
      <trkpt lat="43.46264" lon="2.30581">
        <ele>871.13991742022</ele>
        <time>2020-03-12T14:41:52Z</time>
      </trkpt>
      <trkpt lat="43.46256" lon="2.30583">
        <ele>873.38065003417</ele>
        <time>2020-03-12T14:42:05Z</time>
      </trkpt>
      <trkpt lat="43.46247" lon="2.30585">
        <ele>874.43794165831</ele>
        <time>2020-03-12T14:42:12Z</time>
      </trkpt>
      <trkpt lat="43.46239" lon="2.30586">
        <ele>874.1451308867</ele>
        <time>2020-03-12T14:42:21Z</time>
      </trkpt>
      <trkpt lat="43.46231" lon="2.30587">
        <ele>872.63880570885</ele>
        <time>2020-03-12T14:42:27Z</time>
      </trkpt>
      <trkpt lat="43.46222" lon="2.30588">
        <ele>871.18554783706</ele>
        <time>2020-03-12T14:42:41Z</time>
      </trkpt>
      <trkpt lat="43.46214" lon="2.30588">
        <ele>871.31644186564</ele>
        <time>2020-03-12T14:42:54Z</time>
      </trkpt>
      <trkpt lat="43.46206" lon="2.30592">
        <ele>870.66952225845</ele>
        <time>2020-03-12T14:43:07Z</time>
      </trkpt>
      <trkpt lat="43.46198" lon="2.30596">
        <ele>870.74672276434</ele>
        <time>2020-03-12T14:43:13Z</time>
      </trkpt>
      <trkpt lat="43.46189" lon="2.30599">
        <ele>871.89675009344</ele>
        <time>2020-03-12T14:43:20Z</time>
      </trkpt>
      <trkpt lat="43.46181" lon="2.30599">
        <ele>872.18738104776</ele>
        <time>2020-03-12T14:43:38Z</time>
      </trkpt>
      <trkpt lat="43.46166" lon="2.30605">
        <ele>872.33522404358</ele>
        <time>2020-03-12T14:43:43Z</time>
      </trkpt>
      <trkpt lat="43.46158" lon="2.30607">
        <ele>872.52210941166</ele>
        <time>2020-03-12T14:43:48Z</time>
      </trkpt>
      <trkpt lat="43.46149" lon="2.30608">
        <ele>872.40084528364</ele>
        <time>2020-03-12T14:43:53Z</time>
      </trkpt>
      <trkpt lat="43.46141" lon="2.30608">
        <ele>871.90004437789</ele>
        <time>2020-03-12T14:43:58Z</time>
      </trkpt>
      <trkpt lat="43.46133" lon="2.30607">
        <ele>871.4483862333</ele>
        <time>2020-03-12T14:44:05Z</time>
      </trkpt>
      <trkpt lat="43.46124" lon="2.30603">
        <ele>870.45309507567</ele>
        <time>2020-03-12T14:44:14Z</time>
      </trkpt>
      <trkpt lat="43.46117" lon="2.30599">
        <ele>869.8639203785</ele>
        <time>2020-03-12T14:44:21Z</time>
      </trkpt>
      <trkpt lat="43.4611" lon="2.30594">
        <ele>868.41469747853</ele>
        <time>2020-03-12T14:44:27Z</time>
      </trkpt>
      <trkpt lat="43.46102" lon="2.3059">
        <ele>869.42364309914</ele>
        <time>2020-03-12T14:44:36Z</time>
      </trkpt>
      <trkpt lat="43.46094" lon="2.30586">
        <ele>869.38149555959</ele>
        <time>2020-03-12T14:44:45Z</time>
      </trkpt>
      <trkpt lat="43.46086" lon="2.30582">
        <ele>869.21757366601</ele>
        <time>2020-03-12T14:44:51Z</time>
      </trkpt>
      <trkpt lat="43.46079" lon="2.30578">
        <ele>868.55599272065</ele>
        <time>2020-03-12T14:44:58Z</time>
      </trkpt>
      <trkpt lat="43.46071" lon="2.30572">
        <ele>870.39898734912</ele>
        <time>2020-03-12T14:45:06Z</time>
      </trkpt>
      <trkpt lat="43.46063" lon="2.30567">
        <ele>873.40142785478</ele>
        <time>2020-03-12T14:45:16Z</time>
      </trkpt>
      <trkpt lat="43.46056" lon="2.3056">
        <ele>874.63412235677</ele>
        <time>2020-03-12T14:45:26Z</time>
      </trkpt>
      <trkpt lat="43.46048" lon="2.30554">
        <ele>873.55113950744</ele>
        <time>2020-03-12T14:45:33Z</time>
      </trkpt>
      <trkpt lat="43.46041" lon="2.30549">
        <ele>872.55326802842</ele>
        <time>2020-03-12T14:45:41Z</time>
      </trkpt>
      <trkpt lat="43.46034" lon="2.30542">
        <ele>871.97399292514</ele>
        <time>2020-03-12T14:45:48Z</time>
      </trkpt>
      <trkpt lat="43.46028" lon="2.30534">
        <ele>872.24904207606</ele>
        <time>2020-03-12T14:45:56Z</time>
      </trkpt>
      <trkpt lat="43.46021" lon="2.30528">
        <ele>872.82423010934</ele>
        <time>2020-03-12T14:46:07Z</time>
      </trkpt>
      <trkpt lat="43.46012" lon="2.30528">
        <ele>874.60616488103</ele>
        <time>2020-03-12T14:46:21Z</time>
      </trkpt>
      <trkpt lat="43.46003" lon="2.30531">
        <ele>876.39024946652</ele>
        <time>2020-03-12T14:47:21Z</time>
      </trkpt>
      <trkpt lat="43.45995" lon="2.30531">
        <ele>875.89055227768</ele>
        <time>2020-03-12T14:47:34Z</time>
      </trkpt>
      <trkpt lat="43.45987" lon="2.30527">
        <ele>876.92050170247</ele>
        <time>2020-03-12T14:47:44Z</time>
      </trkpt>
      <trkpt lat="43.45982" lon="2.30519">
        <ele>877.56870307121</ele>
        <time>2020-03-12T14:47:53Z</time>
      </trkpt>
      <trkpt lat="43.45975" lon="2.30512">
        <ele>876.55426904932</ele>
        <time>2020-03-12T14:48:03Z</time>
      </trkpt>
      <trkpt lat="43.45966" lon="2.30514">
        <ele>875.76021227706</ele>
        <time>2020-03-12T14:48:19Z</time>
      </trkpt>
      <trkpt lat="43.45959" lon="2.30519">
        <ele>875.39008866809</ele>
        <time>2020-03-12T14:48:26Z</time>
      </trkpt>
      <trkpt lat="43.4595" lon="2.3052">
        <ele>876.12693683151</ele>
        <time>2020-03-12T14:48:52Z</time>
      </trkpt>
      <trkpt lat="43.45941" lon="2.30522">
        <ele>876.65313940123</ele>
        <time>2020-03-12T14:48:57Z</time>
      </trkpt>
      <trkpt lat="43.45933" lon="2.30523">
        <ele>877.96240009461</ele>
        <time>2020-03-12T14:49:02Z</time>
      </trkpt>
      <trkpt lat="43.45924" lon="2.30525">
        <ele>878.27904590592</ele>
        <time>2020-03-12T14:49:10Z</time>
      </trkpt>
      <trkpt lat="43.45917" lon="2.30525">
        <ele>879.15893734992</ele>
        <time>2020-03-12T14:49:21Z</time>
      </trkpt>
      <trkpt lat="43.45909" lon="2.30525">
        <ele>880.25005233567</ele>
        <time>2020-03-12T14:49:25Z</time>
      </trkpt>
      <trkpt lat="43.45898" lon="2.30521">
        <ele>881.44755714945</ele>
        <time>2020-03-12T14:49:30Z</time>
      </trkpt>
      <trkpt lat="43.4589" lon="2.3052">
        <ele>882.08200324699</ele>
        <time>2020-03-12T14:49:40Z</time>
      </trkpt>
      <trkpt lat="43.45882" lon="2.30518">
        <ele>884.15318631101</ele>
        <time>2020-03-12T14:50:14Z</time>
      </trkpt>
      <trkpt lat="43.45873" lon="2.30515">
        <ele>883.42798327096</ele>
        <time>2020-03-12T14:50:22Z</time>
      </trkpt>
      <trkpt lat="43.45865" lon="2.30513">
        <ele>883.61255164072</ele>
        <time>2020-03-12T14:50:29Z</time>
      </trkpt>
      <trkpt lat="43.45857" lon="2.30511">
        <ele>881.08672867995</ele>
        <time>2020-03-12T14:50:40Z</time>
      </trkpt>
      <trkpt lat="43.45849" lon="2.30509">
        <ele>881.92637398001</ele>
        <time>2020-03-12T14:50:49Z</time>
      </trkpt>
      <trkpt lat="43.45841" lon="2.30508">
        <ele>883.2898016721</ele>
        <time>2020-03-12T14:50:55Z</time>
      </trkpt>
      <trkpt lat="43.45832" lon="2.30505">
        <ele>883.37479557749</ele>
        <time>2020-03-12T14:51:03Z</time>
      </trkpt>
      <trkpt lat="43.45826" lon="2.30505">
        <ele>883.06487964466</ele>
        <time>2020-03-12T14:51:24Z</time>
      </trkpt>
      <trkpt lat="43.45819" lon="2.30502">
        <ele>883.48651601467</ele>
        <time>2020-03-12T14:51:37Z</time>
      </trkpt>
      <trkpt lat="43.458" lon="2.30503">
        <ele>884.32123110443</ele>
        <time>2020-03-12T14:51:42Z</time>
      </trkpt>
      <trkpt lat="43.45792" lon="2.30504">
        <ele>885.73319959361</ele>
        <time>2020-03-12T14:52:19Z</time>
      </trkpt>
      <trkpt lat="43.45785" lon="2.30503">
        <ele>886.93349438533</ele>
        <time>2020-03-12T14:52:24Z</time>
      </trkpt>
      <trkpt lat="43.45777" lon="2.30504">
        <ele>886.14754930418</ele>
        <time>2020-03-12T14:52:33Z</time>
      </trkpt>
      <trkpt lat="43.45769" lon="2.30501">
        <ele>885.42416669801</ele>
        <time>2020-03-12T14:52:40Z</time>
      </trkpt>
      <trkpt lat="43.4576" lon="2.305">
        <ele>884.35347401816</ele>
        <time>2020-03-12T14:52:55Z</time>
      </trkpt>
      <trkpt lat="43.45752" lon="2.30499">
        <ele>884.18843105901</ele>
        <time>2020-03-12T14:53:28Z</time>
      </trkpt>
      <trkpt lat="43.4576" lon="2.30503">
        <ele>880.14945854992</ele>
        <time>2020-03-12T14:54:25Z</time>
      </trkpt>
      <trkpt lat="43.45768" lon="2.30505">
        <ele>880.69565965142</ele>
        <time>2020-03-12T14:54:29Z</time>
      </trkpt>
      <trkpt lat="43.45775" lon="2.30505">
        <ele>880.4693817962</ele>
        <time>2020-03-12T14:54:45Z</time>
      </trkpt>
      <trkpt lat="43.45783" lon="2.30504">
        <ele>879.30644068122</ele>
        <time>2020-03-12T14:54:52Z</time>
      </trkpt>
      <trkpt lat="43.45791" lon="2.30505">
        <ele>879.51509488653</ele>
        <time>2020-03-12T14:54:57Z</time>
      </trkpt>
      <trkpt lat="43.458" lon="2.30506">
        <ele>879.4819522649</ele>
        <time>2020-03-12T14:55:10Z</time>
      </trkpt>
      <trkpt lat="43.45808" lon="2.30507">
        <ele>879.20874821953</ele>
        <time>2020-03-12T14:55:16Z</time>
      </trkpt>
      <trkpt lat="43.45817" lon="2.30509">
        <ele>878.74711707048</ele>
        <time>2020-03-12T14:55:24Z</time>
      </trkpt>
      <trkpt lat="43.45825" lon="2.30509">
        <ele>878.43842741661</ele>
        <time>2020-03-12T14:55:30Z</time>
      </trkpt>
      <trkpt lat="43.45833" lon="2.30511">
        <ele>876.97072004154</ele>
        <time>2020-03-12T14:55:38Z</time>
      </trkpt>
      <trkpt lat="43.45841" lon="2.30515">
        <ele>876.97319015767</ele>
        <time>2020-03-12T14:55:49Z</time>
      </trkpt>
      <trkpt lat="43.45849" lon="2.30517">
        <ele>876.35480158124</ele>
        <time>2020-03-12T14:55:56Z</time>
      </trkpt>
      <trkpt lat="43.45858" lon="2.30519">
        <ele>876.14171255287</ele>
        <time>2020-03-12T14:56:04Z</time>
      </trkpt>
      <trkpt lat="43.45866" lon="2.30519">
        <ele>876.57087641116</ele>
        <time>2020-03-12T14:56:19Z</time>
      </trkpt>
      <trkpt lat="43.45875" lon="2.30522">
        <ele>878.36431143619</ele>
        <time>2020-03-12T14:56:57Z</time>
      </trkpt>
      <trkpt lat="43.45883" lon="2.30524">
        <ele>878.39425868075</ele>
        <time>2020-03-12T14:57:02Z</time>
      </trkpt>
      <trkpt lat="43.45891" lon="2.30527">
        <ele>878.57694292627</ele>
        <time>2020-03-12T14:57:08Z</time>
      </trkpt>
      <trkpt lat="43.45899" lon="2.30532">
        <ele>879.24173054285</ele>
        <time>2020-03-12T14:57:23Z</time>
      </trkpt>
      <trkpt lat="43.45905" lon="2.30533">
        <ele>879.52948554885</ele>
        <time>2020-03-12T14:57:37Z</time>
      </trkpt>
      <trkpt lat="43.45916" lon="2.30532">
        <ele>879.38984700199</ele>
        <time>2020-03-12T14:57:42Z</time>
      </trkpt>
      <trkpt lat="43.45923" lon="2.30529">
        <ele>878.7629037369</ele>
        <time>2020-03-12T14:57:48Z</time>
      </trkpt>
      <trkpt lat="43.45931" lon="2.30525">
        <ele>875.97030615807</ele>
        <time>2020-03-12T14:57:53Z</time>
      </trkpt>
      <trkpt lat="43.4594" lon="2.30527">
        <ele>875.63117899839</ele>
        <time>2020-03-12T14:58:12Z</time>
      </trkpt>
      <trkpt lat="43.45948" lon="2.30525">
        <ele>875.81995277852</ele>
        <time>2020-03-12T14:58:21Z</time>
      </trkpt>
      <trkpt lat="43.45956" lon="2.30521">
        <ele>875.30655322596</ele>
        <time>2020-03-12T14:58:27Z</time>
      </trkpt>
      <trkpt lat="43.45964" lon="2.30516">
        <ele>874.76586347632</ele>
        <time>2020-03-12T14:58:35Z</time>
      </trkpt>
      <trkpt lat="43.45973" lon="2.30514">
        <ele>875.03957783617</ele>
        <time>2020-03-12T14:58:45Z</time>
      </trkpt>
      <trkpt lat="43.4598" lon="2.30522">
        <ele>876.73753367551</ele>
        <time>2020-03-12T14:58:59Z</time>
      </trkpt>
      <trkpt lat="43.45985" lon="2.30532">
        <ele>879.41930624191</ele>
        <time>2020-03-12T14:59:09Z</time>
      </trkpt>
      <trkpt lat="43.45992" lon="2.30539">
        <ele>883.1690907497</ele>
        <time>2020-03-12T14:59:18Z</time>
      </trkpt>
      <trkpt lat="43.45997" lon="2.30548">
        <ele>885.8737021191</ele>
        <time>2020-03-12T14:59:29Z</time>
      </trkpt>
      <trkpt lat="43.46002" lon="2.30558">
        <ele>887.81218687538</ele>
        <time>2020-03-12T14:59:40Z</time>
      </trkpt>
      <trkpt lat="43.46006" lon="2.30569">
        <ele>887.65585810412</ele>
        <time>2020-03-12T14:59:48Z</time>
      </trkpt>
      <trkpt lat="43.46011" lon="2.30578">
        <ele>890.92897774931</ele>
        <time>2020-03-12T14:59:57Z</time>
      </trkpt>
      <trkpt lat="43.46015" lon="2.30587">
        <ele>890.90929841064</ele>
        <time>2020-03-12T15:00:05Z</time>
      </trkpt>
      <trkpt lat="43.4602" lon="2.30597">
        <ele>890.29034398589</ele>
        <time>2020-03-12T15:00:13Z</time>
      </trkpt>
      <trkpt lat="43.46027" lon="2.30605">
        <ele>888.90854177345</ele>
        <time>2020-03-12T15:00:20Z</time>
      </trkpt>
      <trkpt lat="43.46031" lon="2.30614">
        <ele>887.66356089432</ele>
        <time>2020-03-12T15:00:30Z</time>
      </trkpt>
      <trkpt lat="43.46034" lon="2.30626">
        <ele>885.93111516256</ele>
        <time>2020-03-12T15:00:38Z</time>
      </trkpt>
      <trkpt lat="43.46039" lon="2.30636">
        <ele>883.52436698042</ele>
        <time>2020-03-12T15:00:45Z</time>
      </trkpt>
      <trkpt lat="43.46044" lon="2.30646">
        <ele>881.46412708517</ele>
        <time>2020-03-12T15:00:52Z</time>
      </trkpt>
      <trkpt lat="43.46047" lon="2.30657">
        <ele>880.47461511753</ele>
        <time>2020-03-12T15:00:59Z</time>
      </trkpt>
      <trkpt lat="43.46053" lon="2.30665">
        <ele>881.79052362125</ele>
        <time>2020-03-12T15:01:05Z</time>
      </trkpt>
      <trkpt lat="43.46057" lon="2.30676">
        <ele>883.24843031727</ele>
        <time>2020-03-12T15:01:13Z</time>
      </trkpt>
      <trkpt lat="43.46061" lon="2.30686">
        <ele>883.3271986153</ele>
        <time>2020-03-12T15:01:24Z</time>
      </trkpt>
      <trkpt lat="43.46062" lon="2.30697">
        <ele>883.02468357049</ele>
        <time>2020-03-12T15:01:31Z</time>
      </trkpt>
      <trkpt lat="43.46066" lon="2.30707">
        <ele>884.42079449352</ele>
        <time>2020-03-12T15:01:39Z</time>
      </trkpt>
      <trkpt lat="43.46068" lon="2.30719">
        <ele>887.41904587392</ele>
        <time>2020-03-12T15:01:49Z</time>
      </trkpt>
      <trkpt lat="43.4607" lon="2.30731">
        <ele>890.32495235931</ele>
        <time>2020-03-12T15:01:59Z</time>
      </trkpt>
      <trkpt lat="43.46072" lon="2.30742">
        <ele>893.00335444883</ele>
        <time>2020-03-12T15:02:07Z</time>
      </trkpt>
      <trkpt lat="43.46073" lon="2.30753">
        <ele>894.08172447234</ele>
        <time>2020-03-12T15:02:16Z</time>
      </trkpt>
      <trkpt lat="43.46073" lon="2.30765">
        <ele>892.163287309</ele>
        <time>2020-03-12T15:02:24Z</time>
      </trkpt>
      <trkpt lat="43.46073" lon="2.30777">
        <ele>890.02806033008</ele>
        <time>2020-03-12T15:02:33Z</time>
      </trkpt>
      <trkpt lat="43.46075" lon="2.30789">
        <ele>888.68783554155</ele>
        <time>2020-03-12T15:02:44Z</time>
      </trkpt>
      <trkpt lat="43.46074" lon="2.308">
        <ele>887.48120735586</ele>
        <time>2020-03-12T15:02:56Z</time>
      </trkpt>
      <trkpt lat="43.46073" lon="2.30812">
        <ele>886.14421561174</ele>
        <time>2020-03-12T15:03:03Z</time>
      </trkpt>
      <trkpt lat="43.46073" lon="2.30823">
        <ele>885.26734733302</ele>
        <time>2020-03-12T15:03:09Z</time>
      </trkpt>
      <trkpt lat="43.46073" lon="2.30835">
        <ele>885.94567087293</ele>
        <time>2020-03-12T15:03:16Z</time>
      </trkpt>
      <trkpt lat="43.46073" lon="2.30846">
        <ele>886.55394072831</ele>
        <time>2020-03-12T15:03:23Z</time>
      </trkpt>
      <trkpt lat="43.46074" lon="2.30858">
        <ele>887.42446305417</ele>
        <time>2020-03-12T15:03:31Z</time>
      </trkpt>
      <trkpt lat="43.46074" lon="2.3087">
        <ele>888.82331322879</ele>
        <time>2020-03-12T15:03:39Z</time>
      </trkpt>
      <trkpt lat="43.46073" lon="2.30881">
        <ele>889.61622869782</ele>
        <time>2020-03-12T15:03:47Z</time>
      </trkpt>
      <trkpt lat="43.46072" lon="2.30893">
        <ele>889.14733796194</ele>
        <time>2020-03-12T15:03:54Z</time>
      </trkpt>
      <trkpt lat="43.4607" lon="2.30905">
        <ele>890.77735789679</ele>
        <time>2020-03-12T15:04:02Z</time>
      </trkpt>
      <trkpt lat="43.46068" lon="2.30917">
        <ele>891.95716034062</ele>
        <time>2020-03-12T15:04:10Z</time>
      </trkpt>
      <trkpt lat="43.46068" lon="2.30929">
        <ele>893.08979393449</ele>
        <time>2020-03-12T15:04:19Z</time>
      </trkpt>
      <trkpt lat="43.46066" lon="2.3094">
        <ele>893.63461442292</ele>
        <time>2020-03-12T15:04:27Z</time>
      </trkpt>
      <trkpt lat="43.46062" lon="2.3095">
        <ele>891.94896925613</ele>
        <time>2020-03-12T15:04:34Z</time>
      </trkpt>
      <trkpt lat="43.46058" lon="2.30961">
        <ele>891.45957062859</ele>
        <time>2020-03-12T15:04:42Z</time>
      </trkpt>
      <trkpt lat="43.46056" lon="2.30972">
        <ele>889.70346509479</ele>
        <time>2020-03-12T15:04:51Z</time>
      </trkpt>
      <trkpt lat="43.46056" lon="2.30983">
        <ele>887.8679380957</ele>
        <time>2020-03-12T15:04:58Z</time>
      </trkpt>
      <trkpt lat="43.46053" lon="2.30994">
        <ele>887.53049224801</ele>
        <time>2020-03-12T15:05:06Z</time>
      </trkpt>
      <trkpt lat="43.46052" lon="2.31006">
        <ele>888.09799872059</ele>
        <time>2020-03-12T15:05:15Z</time>
      </trkpt>
      <trkpt lat="43.46052" lon="2.31018">
        <ele>888.29346741922</ele>
        <time>2020-03-12T15:05:22Z</time>
      </trkpt>
      <trkpt lat="43.46051" lon="2.31029">
        <ele>886.73588654958</ele>
        <time>2020-03-12T15:05:29Z</time>
      </trkpt>
      <trkpt lat="43.46049" lon="2.31041">
        <ele>887.02613313962</ele>
        <time>2020-03-12T15:05:40Z</time>
      </trkpt>
      <trkpt lat="43.46048" lon="2.31053">
        <ele>887.48040264193</ele>
        <time>2020-03-12T15:05:48Z</time>
      </trkpt>
      <trkpt lat="43.46045" lon="2.31064">
        <ele>888.78971009981</ele>
        <time>2020-03-12T15:05:59Z</time>
      </trkpt>
      <trkpt lat="43.46043" lon="2.31076">
        <ele>888.63145850878</ele>
        <time>2020-03-12T15:06:11Z</time>
      </trkpt>
      <trkpt lat="43.46043" lon="2.31087">
        <ele>888.24756287597</ele>
        <time>2020-03-12T15:06:18Z</time>
      </trkpt>
      <trkpt lat="43.46042" lon="2.31099">
        <ele>887.07345742453</ele>
        <time>2020-03-12T15:06:26Z</time>
      </trkpt>
      <trkpt lat="43.46043" lon="2.31111">
        <ele>886.79380232561</ele>
        <time>2020-03-12T15:06:34Z</time>
      </trkpt>
      <trkpt lat="43.46045" lon="2.31123">
        <ele>888.44574102201</ele>
        <time>2020-03-12T15:06:41Z</time>
      </trkpt>
      <trkpt lat="43.46046" lon="2.31133">
        <ele>889.38521717023</ele>
        <time>2020-03-12T15:06:48Z</time>
      </trkpt>
      <trkpt lat="43.46049" lon="2.31145">
        <ele>890.56823830772</ele>
        <time>2020-03-12T15:06:56Z</time>
      </trkpt>
      <trkpt lat="43.4605" lon="2.31156">
        <ele>888.88025552314</ele>
        <time>2020-03-12T15:07:08Z</time>
      </trkpt>
      <trkpt lat="43.46053" lon="2.31168">
        <ele>889.13686771691</ele>
        <time>2020-03-12T15:07:15Z</time>
      </trkpt>
      <trkpt lat="43.46056" lon="2.31179">
        <ele>888.47733160667</ele>
        <time>2020-03-12T15:07:22Z</time>
      </trkpt>
      <trkpt lat="43.46057" lon="2.31191">
        <ele>887.69087140076</ele>
        <time>2020-03-12T15:07:31Z</time>
      </trkpt>
      <trkpt lat="43.46054" lon="2.31202">
        <ele>886.09332632646</ele>
        <time>2020-03-12T15:07:50Z</time>
      </trkpt>
      <trkpt lat="43.46049" lon="2.3121">
        <ele>889.54762526602</ele>
        <time>2020-03-12T15:08:02Z</time>
      </trkpt>
      <trkpt lat="43.46042" lon="2.31218">
        <ele>890.85377816949</ele>
        <time>2020-03-12T15:08:11Z</time>
      </trkpt>
      <trkpt lat="43.46036" lon="2.31226">
        <ele>889.98818722181</ele>
        <time>2020-03-12T15:08:22Z</time>
      </trkpt>
      <trkpt lat="43.46029" lon="2.31234">
        <ele>888.7914675381</ele>
        <time>2020-03-12T15:08:36Z</time>
      </trkpt>
      <trkpt lat="43.46023" lon="2.31241">
        <ele>887.53465716261</ele>
        <time>2020-03-12T15:08:46Z</time>
      </trkpt>
      <trkpt lat="43.46015" lon="2.31247">
        <ele>883.68075079098</ele>
        <time>2020-03-12T15:08:53Z</time>
      </trkpt>
      <trkpt lat="43.46006" lon="2.31251">
        <ele>882.9075735407</ele>
        <time>2020-03-12T15:09:13Z</time>
      </trkpt>
      <trkpt lat="43.45998" lon="2.3125">
        <ele>884.0521558132</ele>
        <time>2020-03-12T15:09:18Z</time>
      </trkpt>
      <trkpt lat="43.4599" lon="2.31246">
        <ele>882.36319280509</ele>
        <time>2020-03-12T15:09:28Z</time>
      </trkpt>
      <trkpt lat="43.45984" lon="2.31238">
        <ele>879.51294027269</ele>
        <time>2020-03-12T15:09:39Z</time>
      </trkpt>
      <trkpt lat="43.45977" lon="2.3123">
        <ele>878.33458572533</ele>
        <time>2020-03-12T15:09:48Z</time>
      </trkpt>
      <trkpt lat="43.45972" lon="2.31221">
        <ele>878.2376727853</ele>
        <time>2020-03-12T15:09:59Z</time>
      </trkpt>
      <trkpt lat="43.45968" lon="2.3121">
        <ele>876.36937482562</ele>
        <time>2020-03-12T15:10:07Z</time>
      </trkpt>
      <trkpt lat="43.45967" lon="2.31199">
        <ele>875.47758879233</ele>
        <time>2020-03-12T15:10:17Z</time>
      </trkpt>
      <trkpt lat="43.45965" lon="2.31187">
        <ele>873.40626738872</ele>
        <time>2020-03-12T15:10:37Z</time>
      </trkpt>
      <trkpt lat="43.45963" lon="2.31176">
        <ele>870.91293387581</ele>
        <time>2020-03-12T15:10:48Z</time>
      </trkpt>
      <trkpt lat="43.45962" lon="2.31164">
        <ele>869.76671059802</ele>
        <time>2020-03-12T15:10:58Z</time>
      </trkpt>
      <trkpt lat="43.45963" lon="2.31153">
        <ele>868.82705022208</ele>
        <time>2020-03-12T15:11:03Z</time>
      </trkpt>
      <trkpt lat="43.45963" lon="2.31142">
        <ele>869.33928787895</ele>
        <time>2020-03-12T15:11:10Z</time>
      </trkpt>
      <trkpt lat="43.45965" lon="2.3113">
        <ele>868.65731787961</ele>
        <time>2020-03-12T15:11:21Z</time>
      </trkpt>
      <trkpt lat="43.45967" lon="2.31119">
        <ele>867.9312667707</ele>
        <time>2020-03-12T15:11:29Z</time>
      </trkpt>
      <trkpt lat="43.45968" lon="2.31109">
        <ele>866.69139740616</ele>
        <time>2020-03-12T15:11:33Z</time>
      </trkpt>
      <trkpt lat="43.4597" lon="2.31098">
        <ele>865.2896330161</ele>
        <time>2020-03-12T15:11:41Z</time>
      </trkpt>
      <trkpt lat="43.45971" lon="2.31086">
        <ele>863.89118806645</ele>
        <time>2020-03-12T15:11:50Z</time>
      </trkpt>
      <trkpt lat="43.45973" lon="2.31075">
        <ele>862.56519936584</ele>
        <time>2020-03-12T15:11:56Z</time>
      </trkpt>
      <trkpt lat="43.45973" lon="2.31064">
        <ele>861.99870245811</ele>
        <time>2020-03-12T15:12:04Z</time>
      </trkpt>
      <trkpt lat="43.45977" lon="2.31054">
        <ele>861.05990809016</ele>
        <time>2020-03-12T15:12:12Z</time>
      </trkpt>
      <trkpt lat="43.45981" lon="2.31043">
        <ele>861.63819723297</ele>
        <time>2020-03-12T15:12:25Z</time>
      </trkpt>
      <trkpt lat="43.45985" lon="2.31033">
        <ele>859.3958056923</ele>
        <time>2020-03-12T15:12:31Z</time>
      </trkpt>
      <trkpt lat="43.45984" lon="2.31022">
        <ele>857.46389492322</ele>
        <time>2020-03-12T15:12:39Z</time>
      </trkpt>
      <trkpt lat="43.45985" lon="2.3101">
        <ele>857.09008932021</ele>
        <time>2020-03-12T15:12:52Z</time>
      </trkpt>
      <trkpt lat="43.45984" lon="2.30999">
        <ele>855.21676918026</ele>
        <time>2020-03-12T15:13:02Z</time>
      </trkpt>
      <trkpt lat="43.45981" lon="2.30988">
        <ele>856.8116510734</ele>
        <time>2020-03-12T15:13:11Z</time>
      </trkpt>
      <trkpt lat="43.45981" lon="2.30976">
        <ele>856.14935377426</ele>
        <time>2020-03-12T15:13:21Z</time>
      </trkpt>
      <trkpt lat="43.45977" lon="2.30965">
        <ele>854.92648641858</ele>
        <time>2020-03-12T15:13:29Z</time>
      </trkpt>
      <trkpt lat="43.45975" lon="2.30953">
        <ele>854.05875943974</ele>
        <time>2020-03-12T15:13:37Z</time>
      </trkpt>
      <trkpt lat="43.45972" lon="2.30943">
        <ele>854.89427434467</ele>
        <time>2020-03-12T15:13:46Z</time>
      </trkpt>
      <trkpt lat="43.45969" lon="2.30932">
        <ele>853.91948497109</ele>
        <time>2020-03-12T15:13:54Z</time>
      </trkpt>
      <trkpt lat="43.45969" lon="2.3092">
        <ele>852.3910508519</ele>
        <time>2020-03-12T15:14:02Z</time>
      </trkpt>
      <trkpt lat="43.45968" lon="2.30909">
        <ele>851.64845081326</ele>
        <time>2020-03-12T15:14:10Z</time>
      </trkpt>
      <trkpt lat="43.45966" lon="2.30897">
        <ele>849.20111481287</ele>
        <time>2020-03-12T15:14:20Z</time>
      </trkpt>
      <trkpt lat="43.45964" lon="2.30885">
        <ele>846.09802994225</ele>
        <time>2020-03-12T15:14:28Z</time>
      </trkpt>
      <trkpt lat="43.45961" lon="2.30875">
        <ele>845.71106039733</ele>
        <time>2020-03-12T15:14:38Z</time>
      </trkpt>
      <trkpt lat="43.45957" lon="2.30865">
        <ele>845.6608611811</ele>
        <time>2020-03-12T15:14:48Z</time>
      </trkpt>
      <trkpt lat="43.45953" lon="2.30855">
        <ele>846.77186912578</ele>
        <time>2020-03-12T15:14:55Z</time>
      </trkpt>
      <trkpt lat="43.45946" lon="2.30847">
        <ele>847.06206762046</ele>
        <time>2020-03-12T15:15:03Z</time>
      </trkpt>
      <trkpt lat="43.45943" lon="2.30837">
        <ele>846.81557219476</ele>
        <time>2020-03-12T15:15:09Z</time>
      </trkpt>
      <trkpt lat="43.4594" lon="2.30827">
        <ele>846.53209711891</ele>
        <time>2020-03-12T15:15:16Z</time>
      </trkpt>
      <trkpt lat="43.4594" lon="2.30816">
        <ele>846.6036925856</ele>
        <time>2020-03-12T15:15:23Z</time>
      </trkpt>
      <trkpt lat="43.45936" lon="2.30806">
        <ele>845.35627263505</ele>
        <time>2020-03-12T15:15:30Z</time>
      </trkpt>
      <trkpt lat="43.45929" lon="2.30799">
        <ele>846.04637225717</ele>
        <time>2020-03-12T15:15:37Z</time>
      </trkpt>
      <trkpt lat="43.45925" lon="2.30789">
        <ele>846.46913116612</ele>
        <time>2020-03-12T15:15:44Z</time>
      </trkpt>
      <trkpt lat="43.45921" lon="2.30779">
        <ele>847.87021636311</ele>
        <time>2020-03-12T15:15:51Z</time>
      </trkpt>
      <trkpt lat="43.45917" lon="2.30768">
        <ele>847.91815609392</ele>
        <time>2020-03-12T15:15:59Z</time>
      </trkpt>
      <trkpt lat="43.45914" lon="2.30757">
        <ele>849.07794979122</ele>
        <time>2020-03-12T15:16:07Z</time>
      </trkpt>
      <trkpt lat="43.45909" lon="2.30747">
        <ele>849.37420353014</ele>
        <time>2020-03-12T15:16:16Z</time>
      </trkpt>
      <trkpt lat="43.45906" lon="2.30736">
        <ele>849.03280460183</ele>
        <time>2020-03-12T15:16:25Z</time>
      </trkpt>
      <trkpt lat="43.45903" lon="2.30725">
        <ele>849.57770596072</ele>
        <time>2020-03-12T15:16:34Z</time>
      </trkpt>
      <trkpt lat="43.45899" lon="2.30715">
        <ele>849.528647542</ele>
        <time>2020-03-12T15:16:44Z</time>
      </trkpt>
      <trkpt lat="43.45892" lon="2.30708">
        <ele>849.01685488597</ele>
        <time>2020-03-12T15:16:53Z</time>
      </trkpt>
      <trkpt lat="43.45887" lon="2.30697">
        <ele>848.98705016449</ele>
        <time>2020-03-12T15:17:10Z</time>
      </trkpt>
      <trkpt lat="43.45881" lon="2.30689">
        <ele>847.79757185746</ele>
        <time>2020-03-12T15:17:21Z</time>
      </trkpt>
      <trkpt lat="43.45874" lon="2.30682">
        <ele>847.92059596442</ele>
        <time>2020-03-12T15:17:29Z</time>
      </trkpt>
      <trkpt lat="43.45869" lon="2.30674">
        <ele>847.66587453429</ele>
        <time>2020-03-12T15:17:36Z</time>
      </trkpt>
      <trkpt lat="43.45864" lon="2.30665">
        <ele>847.74358323496</ele>
        <time>2020-03-12T15:17:47Z</time>
      </trkpt>
      <trkpt lat="43.45858" lon="2.30658">
        <ele>848.30068663042</ele>
        <time>2020-03-12T15:17:59Z</time>
      </trkpt>
      <trkpt lat="43.45853" lon="2.30649">
        <ele>847.62039372511</ele>
        <time>2020-03-12T15:18:06Z</time>
      </trkpt>
      <trkpt lat="43.45848" lon="2.30641">
        <ele>847.54235768504</ele>
        <time>2020-03-12T15:18:13Z</time>
      </trkpt>
      <trkpt lat="43.45844" lon="2.30631">
        <ele>849.22003391478</ele>
        <time>2020-03-12T15:18:23Z</time>
      </trkpt>
      <trkpt lat="43.45838" lon="2.30621">
        <ele>853.52405713685</ele>
        <time>2020-03-12T15:18:34Z</time>
      </trkpt>
      <trkpt lat="43.45833" lon="2.30613">
        <ele>855.51787988283</ele>
        <time>2020-03-12T15:18:42Z</time>
      </trkpt>
      <trkpt lat="43.45825" lon="2.30606">
        <ele>857.91851404961</ele>
        <time>2020-03-12T15:18:51Z</time>
      </trkpt>
      <trkpt lat="43.45819" lon="2.30598">
        <ele>856.60984808952</ele>
        <time>2020-03-12T15:19:00Z</time>
      </trkpt>
      <trkpt lat="43.45812" lon="2.30592">
        <ele>856.33989210427</ele>
        <time>2020-03-12T15:19:09Z</time>
      </trkpt>
      <trkpt lat="43.45804" lon="2.30586">
        <ele>856.37751832325</ele>
        <time>2020-03-12T15:19:18Z</time>
      </trkpt>
      <trkpt lat="43.45796" lon="2.30584">
        <ele>857.85344733018</ele>
        <time>2020-03-12T15:19:27Z</time>
      </trkpt>
      <trkpt lat="43.45788" lon="2.30579">
        <ele>857.70030486025</ele>
        <time>2020-03-12T15:19:35Z</time>
      </trkpt>
      <trkpt lat="43.45781" lon="2.30573">
        <ele>857.72706836369</ele>
        <time>2020-03-12T15:19:43Z</time>
      </trkpt>
      <trkpt lat="43.45772" lon="2.30569">
        <ele>860.48997579329</ele>
        <time>2020-03-12T15:19:54Z</time>
      </trkpt>
      <trkpt lat="43.45764" lon="2.30569">
        <ele>861.10552221071</ele>
        <time>2020-03-12T15:20:04Z</time>
      </trkpt>
      <trkpt lat="43.45756" lon="2.3057">
        <ele>860.3984141713</ele>
        <time>2020-03-12T15:20:10Z</time>
      </trkpt>
      <trkpt lat="43.45748" lon="2.30571">
        <ele>859.33750185277</ele>
        <time>2020-03-12T15:20:17Z</time>
      </trkpt>
      <trkpt lat="43.45739" lon="2.30571">
        <ele>858.76762083452</ele>
        <time>2020-03-12T15:20:27Z</time>
      </trkpt>
      <trkpt lat="43.45731" lon="2.30574">
        <ele>859.19718486816</ele>
        <time>2020-03-12T15:20:34Z</time>
      </trkpt>
      <trkpt lat="43.45723" lon="2.30578">
        <ele>859.70077725779</ele>
        <time>2020-03-12T15:20:45Z</time>
      </trkpt>
      <trkpt lat="43.45715" lon="2.30582">
        <ele>861.3318789145</ele>
        <time>2020-03-12T15:20:56Z</time>
      </trkpt>
      <trkpt lat="43.45707" lon="2.30586">
        <ele>862.50777200237</ele>
        <time>2020-03-12T15:21:09Z</time>
      </trkpt>
      <trkpt lat="43.457" lon="2.30592">
        <ele>865.10639771074</ele>
        <time>2020-03-12T15:21:23Z</time>
      </trkpt>
      <trkpt lat="43.45691" lon="2.30595">
        <ele>867.36829535291</ele>
        <time>2020-03-12T15:21:31Z</time>
      </trkpt>
      <trkpt lat="43.45684" lon="2.30601">
        <ele>869.47408410348</ele>
        <time>2020-03-12T15:21:39Z</time>
      </trkpt>
      <trkpt lat="43.45676" lon="2.30606">
        <ele>870.47792756557</ele>
        <time>2020-03-12T15:21:46Z</time>
      </trkpt>
      <trkpt lat="43.45668" lon="2.30609">
        <ele>870.20312348008</ele>
        <time>2020-03-12T15:21:58Z</time>
      </trkpt>
      <trkpt lat="43.4566" lon="2.30614">
        <ele>870.57478903607</ele>
        <time>2020-03-12T15:22:05Z</time>
      </trkpt>
      <trkpt lat="43.45654" lon="2.3062">
        <ele>870.19692984037</ele>
        <time>2020-03-12T15:24:01Z</time>
      </trkpt>
      <trkpt lat="43.45647" lon="2.30628">
        <ele>874.57680775784</ele>
        <time>2020-03-12T15:25:30Z</time>
      </trkpt>
      <trkpt lat="43.4564" lon="2.30634">
        <ele>874.06273451541</ele>
        <time>2020-03-12T15:25:40Z</time>
      </trkpt>
      <trkpt lat="43.45634" lon="2.3064">
        <ele>874.04054314457</ele>
        <time>2020-03-12T15:25:45Z</time>
      </trkpt>
      <trkpt lat="43.4563" lon="2.30651">
        <ele>876.20733516384</ele>
        <time>2020-03-12T15:25:55Z</time>
      </trkpt>
      <trkpt lat="43.45624" lon="2.30658">
        <ele>877.26946431305</ele>
        <time>2020-03-12T15:26:03Z</time>
      </trkpt>
      <trkpt lat="43.45618" lon="2.30668">
        <ele>879.19215945248</ele>
        <time>2020-03-12T15:26:12Z</time>
      </trkpt>
      <trkpt lat="43.45611" lon="2.30674">
        <ele>880.74875179306</ele>
        <time>2020-03-12T15:26:20Z</time>
      </trkpt>
      <trkpt lat="43.45606" lon="2.30683">
        <ele>882.29352941737</ele>
        <time>2020-03-12T15:26:30Z</time>
      </trkpt>
      <trkpt lat="43.45602" lon="2.30693">
        <ele>883.46426485758</ele>
        <time>2020-03-12T15:26:46Z</time>
      </trkpt>
      <trkpt lat="43.45597" lon="2.30702">
        <ele>885.11651436053</ele>
        <time>2020-03-12T15:26:52Z</time>
      </trkpt>
      <trkpt lat="43.45592" lon="2.30716">
        <ele>886.17929353565</ele>
        <time>2020-03-12T15:26:57Z</time>
      </trkpt>
      <trkpt lat="43.45588" lon="2.30726">
        <ele>887.04677845445</ele>
        <time>2020-03-12T15:27:03Z</time>
      </trkpt>
      <trkpt lat="43.45584" lon="2.30736">
        <ele>888.55211777613</ele>
        <time>2020-03-12T15:27:10Z</time>
      </trkpt>
      <trkpt lat="43.45582" lon="2.30747">
        <ele>888.12613846827</ele>
        <time>2020-03-12T15:27:17Z</time>
      </trkpt>
      <trkpt lat="43.45578" lon="2.30758">
        <ele>885.9757671617</ele>
        <time>2020-03-12T15:27:25Z</time>
      </trkpt>
      <trkpt lat="43.45574" lon="2.30769">
        <ele>884.7014723504</ele>
        <time>2020-03-12T15:27:32Z</time>
      </trkpt>
      <trkpt lat="43.45571" lon="2.30779">
        <ele>883.89286256954</ele>
        <time>2020-03-12T15:27:40Z</time>
      </trkpt>
      <trkpt lat="43.45567" lon="2.3079">
        <ele>885.29139703233</ele>
        <time>2020-03-12T15:27:48Z</time>
      </trkpt>
      <trkpt lat="43.45563" lon="2.308">
        <ele>886.26602548361</ele>
        <time>2020-03-12T15:27:57Z</time>
      </trkpt>
      <trkpt lat="43.45559" lon="2.30811">
        <ele>886.84378198907</ele>
        <time>2020-03-12T15:28:06Z</time>
      </trkpt>
      <trkpt lat="43.45555" lon="2.30821">
        <ele>887.05984159652</ele>
        <time>2020-03-12T15:28:15Z</time>
      </trkpt>
      <trkpt lat="43.4555" lon="2.30831">
        <ele>887.51571311336</ele>
        <time>2020-03-12T15:28:28Z</time>
      </trkpt>
      <trkpt lat="43.45546" lon="2.30841">
        <ele>886.6957429843</ele>
        <time>2020-03-12T15:28:39Z</time>
      </trkpt>
      <trkpt lat="43.45541" lon="2.30852">
        <ele>885.92344008945</ele>
        <time>2020-03-12T15:28:47Z</time>
      </trkpt>
      <trkpt lat="43.45536" lon="2.30861">
        <ele>885.41487215739</ele>
        <time>2020-03-12T15:28:54Z</time>
      </trkpt>
      <trkpt lat="43.45532" lon="2.3087">
        <ele>886.62489526812</ele>
        <time>2020-03-12T15:29:05Z</time>
      </trkpt>
      <trkpt lat="43.45528" lon="2.30879">
        <ele>886.69767326396</ele>
        <time>2020-03-12T15:29:13Z</time>
      </trkpt>
      <trkpt lat="43.45524" lon="2.30889">
        <ele>884.16284542438</ele>
        <time>2020-03-12T15:29:22Z</time>
      </trkpt>
      <trkpt lat="43.45519" lon="2.30897">
        <ele>882.52055231854</ele>
        <time>2020-03-12T15:29:27Z</time>
      </trkpt>
      <trkpt lat="43.45515" lon="2.30907">
        <ele>882.31580093224</ele>
        <time>2020-03-12T15:29:41Z</time>
      </trkpt>
      <trkpt lat="43.4551" lon="2.30917">
        <ele>881.61697098427</ele>
        <time>2020-03-12T15:29:46Z</time>
      </trkpt>
      <trkpt lat="43.45504" lon="2.30927">
        <ele>881.25354534294</ele>
        <time>2020-03-12T15:29:51Z</time>
      </trkpt>
      <trkpt lat="43.455" lon="2.30937">
        <ele>879.9888405269</ele>
        <time>2020-03-12T15:29:58Z</time>
      </trkpt>
      <trkpt lat="43.45495" lon="2.30948">
        <ele>880.91819814313</ele>
        <time>2020-03-12T15:30:06Z</time>
      </trkpt>
      <trkpt lat="43.45492" lon="2.30958">
        <ele>880.6604530802</ele>
        <time>2020-03-12T15:30:14Z</time>
      </trkpt>
      <trkpt lat="43.45486" lon="2.30968">
        <ele>879.25842679758</ele>
        <time>2020-03-12T15:30:24Z</time>
      </trkpt>
      <trkpt lat="43.45483" lon="2.30978">
        <ele>878.30929461867</ele>
        <time>2020-03-12T15:30:34Z</time>
      </trkpt>
      <trkpt lat="43.45479" lon="2.30988">
        <ele>878.0312779285</ele>
        <time>2020-03-12T15:30:45Z</time>
      </trkpt>
      <trkpt lat="43.45476" lon="2.30998">
        <ele>875.59457707219</ele>
        <time>2020-03-12T15:30:57Z</time>
      </trkpt>
      <trkpt lat="43.45469" lon="2.31007">
        <ele>874.05423334893</ele>
        <time>2020-03-12T15:31:15Z</time>
      </trkpt>
      <trkpt lat="43.45464" lon="2.31017">
        <ele>873.60917556286</ele>
        <time>2020-03-12T15:31:19Z</time>
      </trkpt>
      <trkpt lat="43.4546" lon="2.31026">
        <ele>873.72358575743</ele>
        <time>2020-03-12T15:31:23Z</time>
      </trkpt>
      <trkpt lat="43.45458" lon="2.31038">
        <ele>873.09869908821</ele>
        <time>2020-03-12T15:31:29Z</time>
      </trkpt>
      <trkpt lat="43.45454" lon="2.31047">
        <ele>871.9271776909</ele>
        <time>2020-03-12T15:31:37Z</time>
      </trkpt>
      <trkpt lat="43.4545" lon="2.31057">
        <ele>870.63185653742</ele>
        <time>2020-03-12T15:31:45Z</time>
      </trkpt>
      <trkpt lat="43.45445" lon="2.31065">
        <ele>869.439478877</ele>
        <time>2020-03-12T15:31:55Z</time>
      </trkpt>
      <trkpt lat="43.4544" lon="2.31075">
        <ele>869.63459200226</ele>
        <time>2020-03-12T15:32:12Z</time>
      </trkpt>
      <trkpt lat="43.45437" lon="2.31086">
        <ele>869.33778255619</ele>
        <time>2020-03-12T15:32:21Z</time>
      </trkpt>
      <trkpt lat="43.45434" lon="2.31096">
        <ele>868.88387233764</ele>
        <time>2020-03-12T15:32:27Z</time>
      </trkpt>
      <trkpt lat="43.4543" lon="2.31107">
        <ele>867.43745753635</ele>
        <time>2020-03-12T15:32:34Z</time>
      </trkpt>
      <trkpt lat="43.45427" lon="2.31118">
        <ele>867.01449648011</ele>
        <time>2020-03-12T15:32:45Z</time>
      </trkpt>
      <trkpt lat="43.45422" lon="2.31128">
        <ele>865.11261849478</ele>
        <time>2020-03-12T15:32:52Z</time>
      </trkpt>
      <trkpt lat="43.45418" lon="2.31139">
        <ele>863.4531030776</ele>
        <time>2020-03-12T15:32:58Z</time>
      </trkpt>
      <trkpt lat="43.45414" lon="2.31148">
        <ele>862.10862010811</ele>
        <time>2020-03-12T15:33:04Z</time>
      </trkpt>
      <trkpt lat="43.45412" lon="2.3116">
        <ele>861.56192378886</ele>
        <time>2020-03-12T15:33:13Z</time>
      </trkpt>
      <trkpt lat="43.45409" lon="2.31171">
        <ele>860.13782006688</ele>
        <time>2020-03-12T15:33:22Z</time>
      </trkpt>
      <trkpt lat="43.45418" lon="2.31169">
        <ele>857.11372068711</ele>
        <time>2020-03-12T15:33:45Z</time>
      </trkpt>
      <trkpt lat="43.45425" lon="2.31164">
        <ele>856.1087839501</ele>
        <time>2020-03-12T15:33:58Z</time>
      </trkpt>
      <trkpt lat="43.45431" lon="2.31155">
        <ele>855.79275964666</ele>
        <time>2020-03-12T15:34:06Z</time>
      </trkpt>
      <trkpt lat="43.45438" lon="2.31149">
        <ele>855.53997256514</ele>
        <time>2020-03-12T15:34:14Z</time>
      </trkpt>
      <trkpt lat="43.45444" lon="2.31142">
        <ele>854.88717816304</ele>
        <time>2020-03-12T15:34:28Z</time>
      </trkpt>
      <trkpt lat="43.4545" lon="2.31134">
        <ele>853.61395365652</ele>
        <time>2020-03-12T15:34:33Z</time>
      </trkpt>
      <trkpt lat="43.45453" lon="2.31123">
        <ele>851.97028484847</ele>
        <time>2020-03-12T15:34:41Z</time>
      </trkpt>
      <trkpt lat="43.45458" lon="2.31113">
        <ele>851.54187887907</ele>
        <time>2020-03-12T15:34:53Z</time>
      </trkpt>
      <trkpt lat="43.45464" lon="2.31105">
        <ele>851.8741653515</ele>
        <time>2020-03-12T15:35:00Z</time>
      </trkpt>
      <trkpt lat="43.4547" lon="2.31096">
        <ele>851.69010012317</ele>
        <time>2020-03-12T15:35:10Z</time>
      </trkpt>
      <trkpt lat="43.45478" lon="2.31089">
        <ele>851.79851230048</ele>
        <time>2020-03-12T15:35:27Z</time>
      </trkpt>
      <trkpt lat="43.45484" lon="2.31082">
        <ele>850.86664165277</ele>
        <time>2020-03-12T15:35:36Z</time>
      </trkpt>
      <trkpt lat="43.45491" lon="2.31075">
        <ele>850.07078288775</ele>
        <time>2020-03-12T15:35:46Z</time>
      </trkpt>
      <trkpt lat="43.45498" lon="2.31067">
        <ele>849.97131531592</ele>
        <time>2020-03-12T15:35:51Z</time>
      </trkpt>
      <trkpt lat="43.45505" lon="2.3106">
        <ele>850.4519566074</ele>
        <time>2020-03-12T15:35:56Z</time>
      </trkpt>
      <trkpt lat="43.45512" lon="2.31054">
        <ele>849.57476251945</ele>
        <time>2020-03-12T15:36:11Z</time>
      </trkpt>
      <trkpt lat="43.45519" lon="2.31047">
        <ele>850.51169009414</ele>
        <time>2020-03-12T15:36:23Z</time>
      </trkpt>
      <trkpt lat="43.45526" lon="2.31042">
        <ele>850.02858838253</ele>
        <time>2020-03-12T15:36:29Z</time>
      </trkpt>
      <trkpt lat="43.45532" lon="2.31036">
        <ele>849.72844832391</ele>
        <time>2020-03-12T15:36:47Z</time>
      </trkpt>
      <trkpt lat="43.45539" lon="2.3103">
        <ele>850.14886610024</ele>
        <time>2020-03-12T15:36:53Z</time>
      </trkpt>
      <trkpt lat="43.45547" lon="2.31027">
        <ele>849.64647500403</ele>
        <time>2020-03-12T15:37:02Z</time>
      </trkpt>
      <trkpt lat="43.45555" lon="2.31022">
        <ele>848.8907963438</ele>
        <time>2020-03-12T15:37:13Z</time>
      </trkpt>
      <trkpt lat="43.45563" lon="2.31016">
        <ele>847.10694646277</ele>
        <time>2020-03-12T15:37:19Z</time>
      </trkpt>
      <trkpt lat="43.4557" lon="2.31012">
        <ele>846.05064573884</ele>
        <time>2020-03-12T15:37:24Z</time>
      </trkpt>
      <trkpt lat="43.45577" lon="2.31006">
        <ele>844.36265128292</ele>
        <time>2020-03-12T15:37:30Z</time>
      </trkpt>
      <trkpt lat="43.45585" lon="2.31001">
        <ele>843.57293153927</ele>
        <time>2020-03-12T15:37:39Z</time>
      </trkpt>
      <trkpt lat="43.45593" lon="2.30997">
        <ele>842.53723947424</ele>
        <time>2020-03-12T15:37:46Z</time>
      </trkpt>
      <trkpt lat="43.456" lon="2.30993">
        <ele>840.21075141151</ele>
        <time>2020-03-12T15:37:55Z</time>
      </trkpt>
      <trkpt lat="43.45608" lon="2.30988">
        <ele>838.71365475096</ele>
        <time>2020-03-12T15:38:03Z</time>
      </trkpt>
      <trkpt lat="43.45615" lon="2.30984">
        <ele>838.87068230473</ele>
        <time>2020-03-12T15:38:11Z</time>
      </trkpt>
      <trkpt lat="43.45623" lon="2.3098">
        <ele>838.38402497862</ele>
        <time>2020-03-12T15:38:19Z</time>
      </trkpt>
      <trkpt lat="43.45629" lon="2.30974">
        <ele>837.6423105998</ele>
        <time>2020-03-12T15:38:37Z</time>
      </trkpt>
      <trkpt lat="43.45638" lon="2.30966">
        <ele>837.15954860579</ele>
        <time>2020-03-12T15:38:42Z</time>
      </trkpt>
      <trkpt lat="43.45645" lon="2.30961">
        <ele>837.58615617547</ele>
        <time>2020-03-12T15:38:47Z</time>
      </trkpt>
      <trkpt lat="43.45653" lon="2.30956">
        <ele>836.19833786972</ele>
        <time>2020-03-12T15:38:55Z</time>
      </trkpt>
      <trkpt lat="43.45661" lon="2.30952">
        <ele>834.87834089063</ele>
        <time>2020-03-12T15:39:06Z</time>
      </trkpt>
      <trkpt lat="43.45669" lon="2.30947">
        <ele>833.73896150757</ele>
        <time>2020-03-12T15:39:13Z</time>
      </trkpt>
      <trkpt lat="43.45676" lon="2.30943">
        <ele>834.76260336116</ele>
        <time>2020-03-12T15:39:20Z</time>
      </trkpt>
      <trkpt lat="43.45684" lon="2.30938">
        <ele>832.99757345021</ele>
        <time>2020-03-12T15:39:28Z</time>
      </trkpt>
      <trkpt lat="43.45691" lon="2.30932">
        <ele>832.86223654822</ele>
        <time>2020-03-12T15:39:40Z</time>
      </trkpt>
      <trkpt lat="43.45699" lon="2.30928">
        <ele>832.29192220978</ele>
        <time>2020-03-12T15:39:50Z</time>
      </trkpt>
      <trkpt lat="43.45707" lon="2.30924">
        <ele>832.94078630395</ele>
        <time>2020-03-12T15:40:02Z</time>
      </trkpt>
      <trkpt lat="43.45714" lon="2.3092">
        <ele>832.25653840881</ele>
        <time>2020-03-12T15:40:08Z</time>
      </trkpt>
      <trkpt lat="43.4572" lon="2.30911">
        <ele>831.20788086206</ele>
        <time>2020-03-12T15:40:16Z</time>
      </trkpt>
      <trkpt lat="43.45728" lon="2.30905">
        <ele>830.06648667622</ele>
        <time>2020-03-12T15:40:25Z</time>
      </trkpt>
      <trkpt lat="43.45735" lon="2.30899">
        <ele>826.95060115401</ele>
        <time>2020-03-12T15:40:34Z</time>
      </trkpt>
      <trkpt lat="43.45743" lon="2.309">
        <ele>826.37387328595</ele>
        <time>2020-03-12T15:40:42Z</time>
      </trkpt>
      <trkpt lat="43.45752" lon="2.30899">
        <ele>827.75734345336</ele>
        <time>2020-03-12T15:41:52Z</time>
      </trkpt>
      <trkpt lat="43.45757" lon="2.30909">
        <ele>829.05000841338</ele>
        <time>2020-03-12T15:42:45Z</time>
      </trkpt>
      <trkpt lat="43.45751" lon="2.30917">
        <ele>829.53180572949</ele>
        <time>2020-03-12T15:42:55Z</time>
      </trkpt>
      <trkpt lat="43.45745" lon="2.30925">
        <ele>828.59325783513</ele>
        <time>2020-03-12T15:43:36Z</time>
      </trkpt>
      <trkpt lat="43.45743" lon="2.30937">
        <ele>828.77575792745</ele>
        <time>2020-03-12T15:43:47Z</time>
      </trkpt>
      <trkpt lat="43.45743" lon="2.30949">
        <ele>828.17045795172</ele>
        <time>2020-03-12T15:44:22Z</time>
      </trkpt>
      <trkpt lat="43.45741" lon="2.30961">
        <ele>826.75325018167</ele>
        <time>2020-03-12T15:44:43Z</time>
      </trkpt>
      <trkpt lat="43.45734" lon="2.30967">
        <ele>824.51163666602</ele>
        <time>2020-03-12T15:45:22Z</time>
      </trkpt>
      <trkpt lat="43.45726" lon="2.30972">
        <ele>827.73009744938</ele>
        <time>2020-03-12T15:45:33Z</time>
      </trkpt>
      <trkpt lat="43.45718" lon="2.30977">
        <ele>830.69064130168</ele>
        <time>2020-03-12T15:45:43Z</time>
      </trkpt>
      <trkpt lat="43.45711" lon="2.30985">
        <ele>829.77478437871</ele>
        <time>2020-03-12T15:46:02Z</time>
      </trkpt>
      <trkpt lat="43.45706" lon="2.3099">
        <ele>829.8322187122</ele>
        <time>2020-03-12T15:46:09Z</time>
      </trkpt>
      <trkpt lat="43.45697" lon="2.31002">
        <ele>830.1730540758</ele>
        <time>2020-03-12T15:46:13Z</time>
      </trkpt>
      <trkpt lat="43.45688" lon="2.31011">
        <ele>830.24648105167</ele>
        <time>2020-03-12T15:46:18Z</time>
      </trkpt>
      <trkpt lat="43.45682" lon="2.31016">
        <ele>828.79943970218</ele>
        <time>2020-03-12T15:46:35Z</time>
      </trkpt>
      <trkpt lat="43.45676" lon="2.31024">
        <ele>826.86559846066</ele>
        <time>2020-03-12T15:46:45Z</time>
      </trkpt>
      <trkpt lat="43.45671" lon="2.31034">
        <ele>825.42716386449</ele>
        <time>2020-03-12T15:46:57Z</time>
      </trkpt>
      <trkpt lat="43.45668" lon="2.31044">
        <ele>824.65787774138</ele>
        <time>2020-03-12T15:47:02Z</time>
      </trkpt>
      <trkpt lat="43.45664" lon="2.31054">
        <ele>824.78468470834</ele>
        <time>2020-03-12T15:47:08Z</time>
      </trkpt>
      <trkpt lat="43.45657" lon="2.3106">
        <ele>823.41825737618</ele>
        <time>2020-03-12T15:47:16Z</time>
      </trkpt>
      <trkpt lat="43.4565" lon="2.31066">
        <ele>820.13943982776</ele>
        <time>2020-03-12T15:47:24Z</time>
      </trkpt>
      <trkpt lat="43.45644" lon="2.31074">
        <ele>819.0478891395</ele>
        <time>2020-03-12T15:47:43Z</time>
      </trkpt>
      <trkpt lat="43.45638" lon="2.31082">
        <ele>818.96625517681</ele>
        <time>2020-03-12T15:47:48Z</time>
      </trkpt>
      <trkpt lat="43.45633" lon="2.31091">
        <ele>818.14294818137</ele>
        <time>2020-03-12T15:47:54Z</time>
      </trkpt>
      <trkpt lat="43.45628" lon="2.311">
        <ele>816.78707962204</ele>
        <time>2020-03-12T15:48:06Z</time>
      </trkpt>
      <trkpt lat="43.45623" lon="2.31108">
        <ele>814.73856572714</ele>
        <time>2020-03-12T15:48:11Z</time>
      </trkpt>
      <trkpt lat="43.45617" lon="2.31116">
        <ele>814.02993222326</ele>
        <time>2020-03-12T15:48:17Z</time>
      </trkpt>
      <trkpt lat="43.4561" lon="2.31122">
        <ele>813.70433489885</ele>
        <time>2020-03-12T15:48:35Z</time>
      </trkpt>
      <trkpt lat="43.456" lon="2.31139">
        <ele>814.22681739368</ele>
        <time>2020-03-12T15:48:39Z</time>
      </trkpt>
      <trkpt lat="43.45594" lon="2.3115">
        <ele>815.22442435008</ele>
        <time>2020-03-12T15:48:43Z</time>
      </trkpt>
      <trkpt lat="43.45593" lon="2.31162">
        <ele>818.07606207579</ele>
        <time>2020-03-12T15:48:49Z</time>
      </trkpt>
      <trkpt lat="43.45592" lon="2.31173">
        <ele>818.93867928442</ele>
        <time>2020-03-12T15:49:00Z</time>
      </trkpt>
      <trkpt lat="43.45594" lon="2.31184">
        <ele>817.92444025259</ele>
        <time>2020-03-12T15:49:23Z</time>
      </trkpt>
      <trkpt lat="43.45596" lon="2.31197">
        <ele>817.85850650258</ele>
        <time>2020-03-12T15:49:30Z</time>
      </trkpt>
      <trkpt lat="43.45601" lon="2.31206">
        <ele>816.01242695097</ele>
        <time>2020-03-12T15:50:01Z</time>
      </trkpt>
      <trkpt lat="43.456" lon="2.31217">
        <ele>818.9937144164</ele>
        <time>2020-03-12T15:50:13Z</time>
      </trkpt>
      <trkpt lat="43.45597" lon="2.31228">
        <ele>819.6980514368</ele>
        <time>2020-03-12T15:50:22Z</time>
      </trkpt>
      <trkpt lat="43.45598" lon="2.3124">
        <ele>816.56557643227</ele>
        <time>2020-03-12T15:50:31Z</time>
      </trkpt>
      <trkpt lat="43.45597" lon="2.31252">
        <ele>812.56275216211</ele>
        <time>2020-03-12T15:50:41Z</time>
      </trkpt>
      <trkpt lat="43.45594" lon="2.31261">
        <ele>810.31309957895</ele>
        <time>2020-03-12T15:50:51Z</time>
      </trkpt>
      <trkpt lat="43.45591" lon="2.31272">
        <ele>809.11065263022</ele>
        <time>2020-03-12T15:50:57Z</time>
      </trkpt>
      <trkpt lat="43.45588" lon="2.31283">
        <ele>810.63931840379</ele>
        <time>2020-03-12T15:51:08Z</time>
      </trkpt>
      <trkpt lat="43.45587" lon="2.31295">
        <ele>811.7802280141</ele>
        <time>2020-03-12T15:51:14Z</time>
      </trkpt>
      <trkpt lat="43.45586" lon="2.31307">
        <ele>811.13593656197</ele>
        <time>2020-03-12T15:51:23Z</time>
      </trkpt>
      <trkpt lat="43.45585" lon="2.31319">
        <ele>810.93854168709</ele>
        <time>2020-03-12T15:51:35Z</time>
      </trkpt>
      <trkpt lat="43.45584" lon="2.31331">
        <ele>809.34138414823</ele>
        <time>2020-03-12T15:51:45Z</time>
      </trkpt>
      <trkpt lat="43.45581" lon="2.31342">
        <ele>806.97741618846</ele>
        <time>2020-03-12T15:51:53Z</time>
      </trkpt>
      <trkpt lat="43.45578" lon="2.31353">
        <ele>804.63917110488</ele>
        <time>2020-03-12T15:52:02Z</time>
      </trkpt>
      <trkpt lat="43.45574" lon="2.31363">
        <ele>804.28470028285</ele>
        <time>2020-03-12T15:52:09Z</time>
      </trkpt>
      <trkpt lat="43.45572" lon="2.31375">
        <ele>799.91198038682</ele>
        <time>2020-03-12T15:52:19Z</time>
      </trkpt>
      <trkpt lat="43.45566" lon="2.31384">
        <ele>796.27312016487</ele>
        <time>2020-03-12T15:52:28Z</time>
      </trkpt>
      <trkpt lat="43.45563" lon="2.31395">
        <ele>794.77194692288</ele>
        <time>2020-03-12T15:52:40Z</time>
      </trkpt>
      <trkpt lat="43.45559" lon="2.31405">
        <ele>793.79933701176</ele>
        <time>2020-03-12T15:52:49Z</time>
      </trkpt>
      <trkpt lat="43.45553" lon="2.31414">
        <ele>791.98820557166</ele>
        <time>2020-03-12T15:53:04Z</time>
      </trkpt>
      <trkpt lat="43.45549" lon="2.31423">
        <ele>793.31465911493</ele>
        <time>2020-03-12T15:53:10Z</time>
      </trkpt>
      <trkpt lat="43.45547" lon="2.31433">
        <ele>794.2895693332</ele>
        <time>2020-03-12T15:53:17Z</time>
      </trkpt>
      <trkpt lat="43.45545" lon="2.31444">
        <ele>792.94033028651</ele>
        <time>2020-03-12T15:53:27Z</time>
      </trkpt>
      <trkpt lat="43.45542" lon="2.31455">
        <ele>791.54772810452</ele>
        <time>2020-03-12T15:53:34Z</time>
      </trkpt>
      <trkpt lat="43.45538" lon="2.31465">
        <ele>790.37309923861</ele>
        <time>2020-03-12T15:53:40Z</time>
      </trkpt>
      <trkpt lat="43.45536" lon="2.31477">
        <ele>790.09964136686</ele>
        <time>2020-03-12T15:53:47Z</time>
      </trkpt>
      <trkpt lat="43.45535" lon="2.31489">
        <ele>789.22603237629</ele>
        <time>2020-03-12T15:53:56Z</time>
      </trkpt>
      <trkpt lat="43.45533" lon="2.315">
        <ele>789.96837192215</ele>
        <time>2020-03-12T15:54:07Z</time>
      </trkpt>
      <trkpt lat="43.45531" lon="2.31512">
        <ele>790.04940758925</ele>
        <time>2020-03-12T15:54:20Z</time>
      </trkpt>
      <trkpt lat="43.45529" lon="2.31523">
        <ele>787.38385333866</ele>
        <time>2020-03-12T15:54:34Z</time>
      </trkpt>
      <trkpt lat="43.45526" lon="2.31534">
        <ele>787.22125260439</ele>
        <time>2020-03-12T15:54:43Z</time>
      </trkpt>
      <trkpt lat="43.4552" lon="2.31543">
        <ele>788.30479543749</ele>
        <time>2020-03-12T15:54:51Z</time>
      </trkpt>
      <trkpt lat="43.45515" lon="2.31551">
        <ele>786.97888368741</ele>
        <time>2020-03-12T15:55:00Z</time>
      </trkpt>
      <trkpt lat="43.4551" lon="2.31561">
        <ele>788.27026312798</ele>
        <time>2020-03-12T15:55:08Z</time>
      </trkpt>
      <trkpt lat="43.45505" lon="2.31571">
        <ele>786.43650570419</ele>
        <time>2020-03-12T15:55:19Z</time>
      </trkpt>
      <trkpt lat="43.45501" lon="2.31581">
        <ele>784.69885119889</ele>
        <time>2020-03-12T15:55:28Z</time>
      </trkpt>
      <trkpt lat="43.45498" lon="2.31592">
        <ele>784.53580121137</ele>
        <time>2020-03-12T15:55:37Z</time>
      </trkpt>
      <trkpt lat="43.45496" lon="2.31604">
        <ele>784.42370211612</ele>
        <time>2020-03-12T15:55:49Z</time>
      </trkpt>
      <trkpt lat="43.45494" lon="2.31616">
        <ele>785.16231944785</ele>
        <time>2020-03-12T15:56:02Z</time>
      </trkpt>
      <trkpt lat="43.45492" lon="2.31627">
        <ele>785.08240136132</ele>
        <time>2020-03-12T15:56:07Z</time>
      </trkpt>
      <trkpt lat="43.45488" lon="2.3164">
        <ele>784.7328729853</ele>
        <time>2020-03-12T15:56:12Z</time>
      </trkpt>
      <trkpt lat="43.45484" lon="2.3165">
        <ele>785.95590560697</ele>
        <time>2020-03-12T15:56:18Z</time>
      </trkpt>
      <trkpt lat="43.45482" lon="2.31662">
        <ele>786.86766861565</ele>
        <time>2020-03-12T15:56:25Z</time>
      </trkpt>
      <trkpt lat="43.45479" lon="2.31673">
        <ele>786.81844900176</ele>
        <time>2020-03-12T15:56:32Z</time>
      </trkpt>
      <trkpt lat="43.45476" lon="2.31683">
        <ele>785.20334237255</ele>
        <time>2020-03-12T15:56:40Z</time>
      </trkpt>
      <trkpt lat="43.45475" lon="2.31695">
        <ele>781.84218343534</ele>
        <time>2020-03-12T15:56:52Z</time>
      </trkpt>
      <trkpt lat="43.45471" lon="2.31705">
        <ele>777.11221867427</ele>
        <time>2020-03-12T15:57:01Z</time>
      </trkpt>
      <trkpt lat="43.45465" lon="2.31713">
        <ele>775.68772895914</ele>
        <time>2020-03-12T15:57:08Z</time>
      </trkpt>
      <trkpt lat="43.4546" lon="2.31722">
        <ele>774.55514516775</ele>
        <time>2020-03-12T15:57:15Z</time>
      </trkpt>
      <trkpt lat="43.45456" lon="2.31733">
        <ele>773.00207571499</ele>
        <time>2020-03-12T15:57:30Z</time>
      </trkpt>
      <trkpt lat="43.4545" lon="2.31743">
        <ele>770.39734382927</ele>
        <time>2020-03-12T15:57:39Z</time>
      </trkpt>
      <trkpt lat="43.45444" lon="2.3175">
        <ele>768.25984679908</ele>
        <time>2020-03-12T15:58:04Z</time>
      </trkpt>
      <trkpt lat="43.4544" lon="2.31759">
        <ele>768.70948121324</ele>
        <time>2020-03-12T15:58:19Z</time>
      </trkpt>
      <trkpt lat="43.45436" lon="2.31769">
        <ele>766.69788602181</ele>
        <time>2020-03-12T15:58:25Z</time>
      </trkpt>
      <trkpt lat="43.45437" lon="2.31781">
        <ele>765.07237896509</ele>
        <time>2020-03-12T15:58:32Z</time>
      </trkpt>
      <trkpt lat="43.45436" lon="2.31791">
        <ele>765.33192045987</ele>
        <time>2020-03-12T15:58:37Z</time>
      </trkpt>
      <trkpt lat="43.45437" lon="2.31803">
        <ele>765.35127936676</ele>
        <time>2020-03-12T15:58:57Z</time>
      </trkpt>
      <trkpt lat="43.4544" lon="2.31815">
        <ele>762.60000291746</ele>
        <time>2020-03-12T15:59:02Z</time>
      </trkpt>
      <trkpt lat="43.45439" lon="2.31827">
        <ele>760.33320475183</ele>
        <time>2020-03-12T15:59:09Z</time>
      </trkpt>
      <trkpt lat="43.45436" lon="2.31838">
        <ele>757.19373231661</ele>
        <time>2020-03-12T15:59:15Z</time>
      </trkpt>
      <trkpt lat="43.45437" lon="2.3185">
        <ele>751.56642137282</ele>
        <time>2020-03-12T15:59:23Z</time>
      </trkpt>
      <trkpt lat="43.45433" lon="2.31861">
        <ele>747.89401264768</ele>
        <time>2020-03-12T15:59:36Z</time>
      </trkpt>
      <trkpt lat="43.45425" lon="2.31865">
        <ele>745.28320787009</ele>
        <time>2020-03-12T15:59:52Z</time>
      </trkpt>
      <trkpt lat="43.45417" lon="2.31868">
        <ele>744.92727349978</ele>
        <time>2020-03-12T16:00:01Z</time>
      </trkpt>
      <trkpt lat="43.45409" lon="2.31871">
        <ele>744.91906977724</ele>
        <time>2020-03-12T16:00:08Z</time>
      </trkpt>
      <trkpt lat="43.45401" lon="2.31874">
        <ele>745.77461150754</ele>
        <time>2020-03-12T16:00:13Z</time>
      </trkpt>
      <trkpt lat="43.45394" lon="2.31877">
        <ele>744.82747591939</ele>
        <time>2020-03-12T16:00:18Z</time>
      </trkpt>
      <trkpt lat="43.45385" lon="2.31879">
        <ele>744.61782486178</ele>
        <time>2020-03-12T16:00:29Z</time>
      </trkpt>
      <trkpt lat="43.45377" lon="2.31885">
        <ele>743.18434617855</ele>
        <time>2020-03-12T16:00:37Z</time>
      </trkpt>
      <trkpt lat="43.4538" lon="2.31897">
        <ele>739.57442323118</ele>
        <time>2020-03-12T16:00:49Z</time>
      </trkpt>
      <trkpt lat="43.45386" lon="2.31904">
        <ele>737.0000765305</ele>
        <time>2020-03-12T16:01:00Z</time>
      </trkpt>
      <trkpt lat="43.45394" lon="2.31907">
        <ele>737.53187148552</ele>
        <time>2020-03-12T16:01:14Z</time>
      </trkpt>
      <trkpt lat="43.45403" lon="2.31911">
        <ele>738.29108485486</ele>
        <time>2020-03-12T16:01:24Z</time>
      </trkpt>
      <trkpt lat="43.45411" lon="2.31914">
        <ele>739.95484782755</ele>
        <time>2020-03-12T16:01:35Z</time>
      </trkpt>
      <trkpt lat="43.45418" lon="2.31907">
        <ele>739.33890496101</ele>
        <time>2020-03-12T16:02:27Z</time>
      </trkpt>
      <trkpt lat="43.45418" lon="2.31907">
        <ele>739.33890496101</ele>
        <time>2020-03-12T16:02:27Z</time>
      </trkpt>
    </trkseg>
  </trk>
</gpx>